<?xml version='1.0' encoding='UTF-8'?><gpx version="1.1" creator="JPX - https://github.com/jenetics/jpx" xmlns="http://www.topografix.com/GPX/1/1"><trk><trkseg><trkpt lat="44.3479344" lon="9.2257506"><ele>15.0</ele><time>2026-04-15T15:15:12.506Z</time></trkpt><trkpt lat="44.3478917" lon="9.22579"><ele>15.0</ele><time>2026-04-15T15:15:46.505Z</time></trkpt><trkpt lat="44.347805" lon="9.2258533"><ele>15.0</ele><time>2026-04-15T15:15:49.505Z</time></trkpt><trkpt lat="44.347745" lon="9.2258917"><ele>15.0</ele><time>2026-04-15T15:15:53.506Z</time></trkpt><trkpt lat="44.3476633" lon="9.2258267"><ele>15.0</ele><time>2026-04-15T15:16:01.506Z</time></trkpt><trkpt lat="44.347555" lon="9.225765"><ele>15.0</ele><time>2026-04-15T15:16:03.505Z</time></trkpt><trkpt lat="44.34744" lon="9.2257767"><ele>15.0</ele><time>2026-04-15T15:16:05.506Z</time></trkpt><trkpt lat="44.3473817" lon="9.225825"><ele>15.0</ele><time>2026-04-15T15:16:06.506Z</time></trkpt><trkpt lat="44.3473167" lon="9.2258633"><ele>15.0</ele><time>2026-04-15T15:16:07.506Z</time></trkpt><trkpt lat="44.3472533" lon="9.2259067"><ele>15.0</ele><time>2026-04-15T15:16:08.506Z</time></trkpt><trkpt lat="44.34719" lon="9.2259283"><ele>15.0</ele><time>2026-04-15T15:16:09.505Z</time></trkpt><trkpt lat="44.34712" lon="9.2259767"><ele>15.0</ele><time>2026-04-15T15:16:10.506Z</time></trkpt><trkpt lat="44.3470533" lon="9.2260117"><ele>15.0</ele><time>2026-04-15T15:16:11.506Z</time></trkpt><trkpt lat="44.3469317" lon="9.22596"><ele>15.166666666666666</ele><time>2026-04-15T15:16:13.506Z</time></trkpt><trkpt lat="44.3468783" lon="9.225885"><ele>15.333333333333332</ele><time>2026-04-15T15:16:14.506Z</time></trkpt><trkpt lat="44.34683" lon="9.2257933"><ele>15.5</ele><time>2026-04-15T15:16:15.505Z</time></trkpt><trkpt lat="44.34679" lon="9.2256767"><ele>15.666666666666666</ele><time>2026-04-15T15:16:16.505Z</time></trkpt><trkpt lat="44.3467467" lon="9.225555"><ele>15.833333333333332</ele><time>2026-04-15T15:16:17.505Z</time></trkpt><trkpt lat="44.34671" lon="9.225435"><ele>16.0</ele><time>2026-04-15T15:16:18.505Z</time></trkpt><trkpt lat="44.34667" lon="9.2253183"><ele>19.0</ele><time>2026-04-15T15:16:19.506Z</time></trkpt><trkpt lat="44.34663" lon="9.2251983"><ele>22.0</ele><time>2026-04-15T15:16:20.506Z</time></trkpt><trkpt lat="44.3465767" lon="9.225105"><ele>25.0</ele><time>2026-04-15T15:16:21.506Z</time></trkpt><trkpt lat="44.3465067" lon="9.2250267"><ele>28.0</ele><time>2026-04-15T15:16:22.505Z</time></trkpt><trkpt lat="44.3464183" lon="9.2249667"><ele>31.0</ele><time>2026-04-15T15:16:23.506Z</time></trkpt><trkpt lat="44.3463217" lon="9.2249167"><ele>31.200000000000003</ele><time>2026-04-15T15:16:24.505Z</time></trkpt><trkpt lat="44.3462217" lon="9.2248717"><ele>31.400000000000002</ele><time>2026-04-15T15:16:25.505Z</time></trkpt><trkpt lat="44.3461233" lon="9.2248583"><ele>31.6</ele><time>2026-04-15T15:16:26.505Z</time></trkpt><trkpt lat="44.3460367" lon="9.2248817"><ele>31.8</ele><time>2026-04-15T15:16:27.506Z</time></trkpt><trkpt lat="44.345955" lon="9.2249383"><ele>32.0</ele><time>2026-04-15T15:16:28.505Z</time></trkpt><trkpt lat="44.3458733" lon="9.2250117"><ele>32.0</ele><time>2026-04-15T15:16:29.505Z</time></trkpt><trkpt lat="44.3457917" lon="9.2250933"><ele>32.0</ele><time>2026-04-15T15:16:30.505Z</time></trkpt><trkpt lat="44.345695" lon="9.22513"><ele>32.0</ele><time>2026-04-15T15:16:31.506Z</time></trkpt><trkpt lat="44.3455933" lon="9.22514"><ele>32.0</ele><time>2026-04-15T15:16:32.506Z</time></trkpt><trkpt lat="44.345495" lon="9.22513"><ele>32.0</ele><time>2026-04-15T15:16:33.506Z</time></trkpt><trkpt lat="44.3453967" lon="9.225125"><ele>34.400000000000006</ele><time>2026-04-15T15:16:34.506Z</time></trkpt><trkpt lat="44.3452967" lon="9.2251217"><ele>36.800000000000004</ele><time>2026-04-15T15:16:35.505Z</time></trkpt><trkpt lat="44.3451983" lon="9.22512"><ele>39.2</ele><time>2026-04-15T15:16:36.506Z</time></trkpt><trkpt lat="44.3450983" lon="9.225125"><ele>41.6</ele><time>2026-04-15T15:16:37.506Z</time></trkpt><trkpt lat="44.34501" lon="9.225155"><ele>44.0</ele><time>2026-04-15T15:16:38.505Z</time></trkpt><trkpt lat="44.34493" lon="9.2252167"><ele>44.0</ele><time>2026-04-15T15:16:39.505Z</time></trkpt><trkpt lat="44.3448633" lon="9.2253133"><ele>44.0</ele><time>2026-04-15T15:16:40.506Z</time></trkpt><trkpt lat="44.344815" lon="9.225445"><ele>44.0</ele><time>2026-04-15T15:16:41.506Z</time></trkpt><trkpt lat="44.3447867" lon="9.2255883"><ele>44.0</ele><time>2026-04-15T15:16:42.505Z</time></trkpt><trkpt lat="44.3447583" lon="9.2257283"><ele>44.0</ele><time>2026-04-15T15:16:43.506Z</time></trkpt><trkpt lat="44.344725" lon="9.2258633"><ele>44.800000000000004</ele><time>2026-04-15T15:16:44.506Z</time></trkpt><trkpt lat="44.3446733" lon="9.2259817"><ele>45.6</ele><time>2026-04-15T15:16:45.506Z</time></trkpt><trkpt lat="44.344605" lon="9.226065"><ele>46.4</ele><time>2026-04-15T15:16:46.506Z</time></trkpt><trkpt lat="44.3445283" lon="9.226115"><ele>47.2</ele><time>2026-04-15T15:16:47.505Z</time></trkpt><trkpt lat="44.3444333" lon="9.226135"><ele>48.0</ele><time>2026-04-15T15:16:48.505Z</time></trkpt><trkpt lat="44.34434" lon="9.2261017"><ele>48.0</ele><time>2026-04-15T15:16:49.505Z</time></trkpt><trkpt lat="44.344245" lon="9.226055"><ele>48.0</ele><time>2026-04-15T15:16:50.505Z</time></trkpt><trkpt lat="44.34415" lon="9.226005"><ele>48.0</ele><time>2026-04-15T15:16:51.506Z</time></trkpt><trkpt lat="44.344045" lon="9.2259783"><ele>48.0</ele><time>2026-04-15T15:16:52.506Z</time></trkpt><trkpt lat="44.343945" lon="9.225995"><ele>48.0</ele><time>2026-04-15T15:16:53.506Z</time></trkpt><trkpt lat="44.3438517" lon="9.2260517"><ele>48.599999999999994</ele><time>2026-04-15T15:16:54.505Z</time></trkpt><trkpt lat="44.343755" lon="9.2261367"><ele>49.199999999999996</ele><time>2026-04-15T15:16:55.506Z</time></trkpt><trkpt lat="44.3436667" lon="9.2262383"><ele>49.8</ele><time>2026-04-15T15:16:56.506Z</time></trkpt><trkpt lat="44.3435917" lon="9.22634"><ele>50.4</ele><time>2026-04-15T15:16:57.506Z</time></trkpt><trkpt lat="44.343525" lon="9.226455"><ele>51.0</ele><time>2026-04-15T15:16:58.506Z</time></trkpt><trkpt lat="44.3434583" lon="9.2265833"><ele>51.0</ele><time>2026-04-15T15:16:59.505Z</time></trkpt><trkpt lat="44.3433983" lon="9.2266833"><ele>51.0</ele><time>2026-04-15T15:17:00.506Z</time></trkpt><trkpt lat="44.3433367" lon="9.2267783"><ele>51.0</ele><time>2026-04-15T15:17:01.506Z</time></trkpt><trkpt lat="44.3432733" lon="9.2268567"><ele>51.0</ele><time>2026-04-15T15:17:02.506Z</time></trkpt><trkpt lat="44.343205" lon="9.22691"><ele>51.0</ele><time>2026-04-15T15:17:03.505Z</time></trkpt><trkpt lat="44.3431317" lon="9.2269367"><ele>51.0</ele><time>2026-04-15T15:17:04.506Z</time></trkpt><trkpt lat="44.34307" lon="9.226885"><ele>52.166666666666664</ele><time>2026-04-15T15:17:05.506Z</time></trkpt><trkpt lat="44.3430217" lon="9.2268083"><ele>53.33333333333333</ele><time>2026-04-15T15:17:06.505Z</time></trkpt><trkpt lat="44.342995" lon="9.226725"><ele>54.5</ele><time>2026-04-15T15:17:07.505Z</time></trkpt><trkpt lat="44.3429983" lon="9.2266267"><ele>55.666666666666664</ele><time>2026-04-15T15:17:08.506Z</time></trkpt><trkpt lat="44.343045" lon="9.226515"><ele>56.83333333333333</ele><time>2026-04-15T15:17:09.506Z</time></trkpt><trkpt lat="44.3431067" lon="9.2264117"><ele>58.0</ele><time>2026-04-15T15:17:10.506Z</time></trkpt><trkpt lat="44.3431633" lon="9.22631"><ele>58.0</ele><time>2026-04-15T15:17:11.506Z</time></trkpt><trkpt lat="44.3432133" lon="9.2261933"><ele>58.0</ele><time>2026-04-15T15:17:12.505Z</time></trkpt><trkpt lat="44.3432417" lon="9.2260667"><ele>58.0</ele><time>2026-04-15T15:17:13.506Z</time></trkpt><trkpt lat="44.3432533" lon="9.2259333"><ele>58.0</ele><time>2026-04-15T15:17:14.506Z</time></trkpt><trkpt lat="44.3432617" lon="9.2258"><ele>58.0</ele><time>2026-04-15T15:17:15.505Z</time></trkpt><trkpt lat="44.343275" lon="9.22566"><ele>58.83333333333333</ele><time>2026-04-15T15:17:16.505Z</time></trkpt><trkpt lat="44.3432817" lon="9.2255317"><ele>59.666666666666664</ele><time>2026-04-15T15:17:17.505Z</time></trkpt><trkpt lat="44.343295" lon="9.22541"><ele>60.5</ele><time>2026-04-15T15:17:18.505Z</time></trkpt><trkpt lat="44.3433283" lon="9.22529"><ele>61.33333333333333</ele><time>2026-04-15T15:17:19.506Z</time></trkpt><trkpt lat="44.34339" lon="9.2252067"><ele>62.166666666666664</ele><time>2026-04-15T15:17:20.505Z</time></trkpt><trkpt lat="44.3434617" lon="9.2251433"><ele>63.0</ele><time>2026-04-15T15:17:21.506Z</time></trkpt><trkpt lat="44.34353" lon="9.225065"><ele>63.0</ele><time>2026-04-15T15:17:22.506Z</time></trkpt><trkpt lat="44.343595" lon="9.22497"><ele>63.0</ele><time>2026-04-15T15:17:23.505Z</time></trkpt><trkpt lat="44.343655" lon="9.2248533"><ele>63.0</ele><time>2026-04-15T15:17:24.506Z</time></trkpt><trkpt lat="44.3437083" lon="9.22473"><ele>63.0</ele><time>2026-04-15T15:17:25.505Z</time></trkpt><trkpt lat="44.34375" lon="9.2245967"><ele>63.0</ele><time>2026-04-15T15:17:26.505Z</time></trkpt><trkpt lat="44.3437833" lon="9.2244567"><ele>62.0</ele><time>2026-04-15T15:17:27.506Z</time></trkpt><trkpt lat="44.343795" lon="9.2243167"><ele>61.0</ele><time>2026-04-15T15:17:28.505Z</time></trkpt><trkpt lat="44.3437933" lon="9.224185"><ele>60.0</ele><time>2026-04-15T15:17:29.505Z</time></trkpt><trkpt lat="44.3437783" lon="9.2240417"><ele>59.0</ele><time>2026-04-15T15:17:30.506Z</time></trkpt><trkpt lat="44.34378" lon="9.2239117"><ele>58.0</ele><time>2026-04-15T15:17:31.506Z</time></trkpt><trkpt lat="44.3437917" lon="9.2237867"><ele>57.83333333333333</ele><time>2026-04-15T15:17:32.505Z</time></trkpt><trkpt lat="44.3438183" lon="9.223675"><ele>57.666666666666664</ele><time>2026-04-15T15:17:33.505Z</time></trkpt><trkpt lat="44.3438717" lon="9.2235667"><ele>57.5</ele><time>2026-04-15T15:17:34.505Z</time></trkpt><trkpt lat="44.3439233" lon="9.22346"><ele>57.33333333333333</ele><time>2026-04-15T15:17:35.506Z</time></trkpt><trkpt lat="44.3439617" lon="9.22335"><ele>57.166666666666664</ele><time>2026-04-15T15:17:36.506Z</time></trkpt><trkpt lat="44.3439833" lon="9.22323"><ele>57.0</ele><time>2026-04-15T15:17:37.505Z</time></trkpt><trkpt lat="44.343985" lon="9.223105"><ele>61.666666666666664</ele><time>2026-04-15T15:17:38.505Z</time></trkpt><trkpt lat="44.3439633" lon="9.222995"><ele>66.33333333333333</ele><time>2026-04-15T15:17:39.505Z</time></trkpt><trkpt lat="44.3439433" lon="9.222895"><ele>71.0</ele><time>2026-04-15T15:17:40.506Z</time></trkpt><trkpt lat="44.3439367" lon="9.2228017"><ele>75.66666666666666</ele><time>2026-04-15T15:17:41.506Z</time></trkpt><trkpt lat="44.3439483" lon="9.2227"><ele>80.33333333333333</ele><time>2026-04-15T15:17:42.505Z</time></trkpt><trkpt lat="44.3439717" lon="9.2226017"><ele>85.0</ele><time>2026-04-15T15:17:43.506Z</time></trkpt><trkpt lat="44.3440017" lon="9.222485"><ele>85.0</ele><time>2026-04-15T15:17:44.506Z</time></trkpt><trkpt lat="44.344025" lon="9.222365"><ele>85.0</ele><time>2026-04-15T15:17:45.505Z</time></trkpt><trkpt lat="44.3440383" lon="9.2222467"><ele>85.0</ele><time>2026-04-15T15:17:46.506Z</time></trkpt><trkpt lat="44.34405" lon="9.222125"><ele>85.0</ele><time>2026-04-15T15:17:47.506Z</time></trkpt><trkpt lat="44.34407" lon="9.2220133"><ele>85.0</ele><time>2026-04-15T15:17:48.506Z</time></trkpt><trkpt lat="44.3441033" lon="9.2218967"><ele>85.0</ele><time>2026-04-15T15:17:49.505Z</time></trkpt><trkpt lat="44.3441483" lon="9.2217933"><ele>84.8</ele><time>2026-04-15T15:17:50.506Z</time></trkpt><trkpt lat="44.3441917" lon="9.2216767"><ele>84.6</ele><time>2026-04-15T15:17:51.505Z</time></trkpt><trkpt lat="44.3442317" lon="9.2215533"><ele>84.4</ele><time>2026-04-15T15:17:52.505Z</time></trkpt><trkpt lat="44.3442517" lon="9.2214"><ele>84.2</ele><time>2026-04-15T15:17:53.505Z</time></trkpt><trkpt lat="44.3442783" lon="9.22127"><ele>84.0</ele><time>2026-04-15T15:17:54.506Z</time></trkpt><trkpt lat="44.3442967" lon="9.2211433"><ele>84.0</ele><time>2026-04-15T15:17:55.506Z</time></trkpt><trkpt lat="44.3443117" lon="9.2210167"><ele>84.0</ele><time>2026-04-15T15:17:56.505Z</time></trkpt><trkpt lat="44.3443267" lon="9.2208833"><ele>84.0</ele><time>2026-04-15T15:17:57.505Z</time></trkpt><trkpt lat="44.3443483" lon="9.220755"><ele>84.0</ele><time>2026-04-15T15:17:58.506Z</time></trkpt><trkpt lat="44.3443817" lon="9.2206267"><ele>84.0</ele><time>2026-04-15T15:17:59.505Z</time></trkpt><trkpt lat="44.34442" lon="9.2205017"><ele>83.80000000000001</ele><time>2026-04-15T15:18:00.506Z</time></trkpt><trkpt lat="44.34446" lon="9.2203733"><ele>83.60000000000001</ele><time>2026-04-15T15:18:01.506Z</time></trkpt><trkpt lat="44.34451" lon="9.22026"><ele>83.4</ele><time>2026-04-15T15:18:02.506Z</time></trkpt><trkpt lat="44.3445367" lon="9.2201267"><ele>83.2</ele><time>2026-04-15T15:18:03.506Z</time></trkpt><trkpt lat="44.3445567" lon="9.22"><ele>83.0</ele><time>2026-04-15T15:18:04.505Z</time></trkpt><trkpt lat="44.3445567" lon="9.21987"><ele>81.60000000000001</ele><time>2026-04-15T15:18:05.506Z</time></trkpt><trkpt lat="44.3445433" lon="9.21974"><ele>80.2</ele><time>2026-04-15T15:18:06.506Z</time></trkpt><trkpt lat="44.344525" lon="9.219605"><ele>78.8</ele><time>2026-04-15T15:18:07.506Z</time></trkpt><trkpt lat="44.3445167" lon="9.2194583"><ele>77.4</ele><time>2026-04-15T15:18:08.505Z</time></trkpt><trkpt lat="44.3445367" lon="9.2193067"><ele>76.0</ele><time>2026-04-15T15:18:09.506Z</time></trkpt><trkpt lat="44.3445833" lon="9.2191667"><ele>76.0</ele><time>2026-04-15T15:18:10.506Z</time></trkpt><trkpt lat="44.344645" lon="9.2190383"><ele>76.0</ele><time>2026-04-15T15:18:11.505Z</time></trkpt><trkpt lat="44.3447067" lon="9.2189083"><ele>76.0</ele><time>2026-04-15T15:18:12.506Z</time></trkpt><trkpt lat="44.344765" lon="9.2187767"><ele>76.0</ele><time>2026-04-15T15:18:13.506Z</time></trkpt><trkpt lat="44.3448033" lon="9.21864"><ele>76.0</ele><time>2026-04-15T15:18:14.505Z</time></trkpt><trkpt lat="44.3448267" lon="9.2185017"><ele>83.6</ele><time>2026-04-15T15:18:15.505Z</time></trkpt><trkpt lat="44.34483" lon="9.2183583"><ele>91.19999999999999</ele><time>2026-04-15T15:18:16.505Z</time></trkpt><trkpt lat="44.3448117" lon="9.2182133"><ele>98.80000000000001</ele><time>2026-04-15T15:18:17.505Z</time></trkpt><trkpt lat="44.3447833" lon="9.21807"><ele>106.4</ele><time>2026-04-15T15:18:18.505Z</time></trkpt><trkpt lat="44.34476" lon="9.21792"><ele>114.0</ele><time>2026-04-15T15:18:19.506Z</time></trkpt><trkpt lat="44.3447367" lon="9.217775"><ele>114.80000000000001</ele><time>2026-04-15T15:18:20.506Z</time></trkpt><trkpt lat="44.344715" lon="9.2176283"><ele>115.60000000000001</ele><time>2026-04-15T15:18:21.506Z</time></trkpt><trkpt lat="44.344695" lon="9.21748"><ele>116.4</ele><time>2026-04-15T15:18:22.506Z</time></trkpt><trkpt lat="44.3446767" lon="9.2173267"><ele>117.2</ele><time>2026-04-15T15:18:23.505Z</time></trkpt><trkpt lat="44.3446617" lon="9.2171617"><ele>118.0</ele><time>2026-04-15T15:18:24.506Z</time></trkpt><trkpt lat="44.3446417" lon="9.2169967"><ele>113.80000000000001</ele><time>2026-04-15T15:18:25.506Z</time></trkpt><trkpt lat="44.3446217" lon="9.21684"><ele>109.60000000000001</ele><time>2026-04-15T15:18:26.506Z</time></trkpt><trkpt lat="44.3446" lon="9.2166883"><ele>105.4</ele><time>2026-04-15T15:18:27.506Z</time></trkpt><trkpt lat="44.3445767" lon="9.21654"><ele>101.19999999999999</ele><time>2026-04-15T15:18:28.505Z</time></trkpt><trkpt lat="44.3445517" lon="9.2163883"><ele>97.0</ele><time>2026-04-15T15:18:29.505Z</time></trkpt><trkpt lat="44.3445383" lon="9.2162383"><ele>97.0</ele><time>2026-04-15T15:18:30.506Z</time></trkpt><trkpt lat="44.3445217" lon="9.2160817"><ele>97.0</ele><time>2026-04-15T15:18:31.505Z</time></trkpt><trkpt lat="44.344505" lon="9.215925"><ele>97.0</ele><time>2026-04-15T15:18:32.505Z</time></trkpt><trkpt lat="44.3444883" lon="9.215765"><ele>97.0</ele><time>2026-04-15T15:18:33.506Z</time></trkpt><trkpt lat="44.3444617" lon="9.2156183"><ele>99.75</ele><time>2026-04-15T15:18:34.506Z</time></trkpt><trkpt lat="44.3444467" lon="9.2154633"><ele>102.5</ele><time>2026-04-15T15:18:35.506Z</time></trkpt><trkpt lat="44.34443" lon="9.2153067"><ele>105.25</ele><time>2026-04-15T15:18:36.506Z</time></trkpt><trkpt lat="44.3444117" lon="9.21515"><ele>108.0</ele><time>2026-04-15T15:18:37.505Z</time></trkpt><trkpt lat="44.344395" lon="9.2149917"><ele>108.0</ele><time>2026-04-15T15:18:38.506Z</time></trkpt><trkpt lat="44.3443783" lon="9.214835"><ele>108.00000000000001</ele><time>2026-04-15T15:18:39.506Z</time></trkpt><trkpt lat="44.3443583" lon="9.21468"><ele>108.00000000000001</ele><time>2026-04-15T15:18:40.506Z</time></trkpt><trkpt lat="44.3443367" lon="9.21453"><ele>108.0</ele><time>2026-04-15T15:18:41.505Z</time></trkpt><trkpt lat="44.3443067" lon="9.2143833"><ele>108.0</ele><time>2026-04-15T15:18:42.506Z</time></trkpt><trkpt lat="44.344275" lon="9.2142417"><ele>111.4</ele><time>2026-04-15T15:18:43.506Z</time></trkpt><trkpt lat="44.3442367" lon="9.2141033"><ele>114.80000000000001</ele><time>2026-04-15T15:18:44.506Z</time></trkpt><trkpt lat="44.3441883" lon="9.2139817"><ele>118.2</ele><time>2026-04-15T15:18:45.505Z</time></trkpt><trkpt lat="44.3441183" lon="9.2138883"><ele>121.6</ele><time>2026-04-15T15:18:46.505Z</time></trkpt><trkpt lat="44.3440317" lon="9.2138333"><ele>125.0</ele><time>2026-04-15T15:18:47.506Z</time></trkpt><trkpt lat="44.3439383" lon="9.21384"><ele>126.2</ele><time>2026-04-15T15:18:48.505Z</time></trkpt><trkpt lat="44.343855" lon="9.2139017"><ele>127.4</ele><time>2026-04-15T15:18:49.506Z</time></trkpt><trkpt lat="44.3437833" lon="9.2139983"><ele>128.6</ele><time>2026-04-15T15:18:50.506Z</time></trkpt><trkpt lat="44.3437083" lon="9.214115"><ele>129.8</ele><time>2026-04-15T15:18:51.506Z</time></trkpt><trkpt lat="44.3436367" lon="9.2142233"><ele>131.0</ele><time>2026-04-15T15:18:52.505Z</time></trkpt><trkpt lat="44.3435383" lon="9.214305"><ele>131.0</ele><time>2026-04-15T15:18:53.506Z</time></trkpt><trkpt lat="44.34344" lon="9.2143433"><ele>131.0</ele><time>2026-04-15T15:18:54.506Z</time></trkpt><trkpt lat="44.343345" lon="9.2143517"><ele>131.0</ele><time>2026-04-15T15:18:55.506Z</time></trkpt><trkpt lat="44.3432567" lon="9.2143333"><ele>131.0</ele><time>2026-04-15T15:18:56.505Z</time></trkpt><trkpt lat="44.3431767" lon="9.2143"><ele>131.0</ele><time>2026-04-15T15:18:57.505Z</time></trkpt><trkpt lat="44.3431017" lon="9.2142817"><ele>131.0</ele><time>2026-04-15T15:18:58.505Z</time></trkpt><trkpt lat="44.343025" lon="9.214285"><ele>133.0</ele><time>2026-04-15T15:18:59.505Z</time></trkpt><trkpt lat="44.3429567" lon="9.2143083"><ele>135.0</ele><time>2026-04-15T15:19:00.506Z</time></trkpt><trkpt lat="44.3428883" lon="9.2143633"><ele>137.0</ele><time>2026-04-15T15:19:01.505Z</time></trkpt><trkpt lat="44.3428167" lon="9.2144383"><ele>139.0</ele><time>2026-04-15T15:19:02.505Z</time></trkpt><trkpt lat="44.3427433" lon="9.21453"><ele>141.0</ele><time>2026-04-15T15:19:03.506Z</time></trkpt><trkpt lat="44.3426717" lon="9.2146283"><ele>143.0</ele><time>2026-04-15T15:19:04.506Z</time></trkpt><trkpt lat="44.342595" lon="9.2147283"><ele>143.0</ele><time>2026-04-15T15:19:05.505Z</time></trkpt><trkpt lat="44.3425033" lon="9.2148183"><ele>143.0</ele><time>2026-04-15T15:19:06.505Z</time></trkpt><trkpt lat="44.3424017" lon="9.214885"><ele>143.0</ele><time>2026-04-15T15:19:07.505Z</time></trkpt><trkpt lat="44.3422933" lon="9.214945"><ele>143.0</ele><time>2026-04-15T15:19:08.506Z</time></trkpt><trkpt lat="44.3421817" lon="9.2149883"><ele>143.0</ele><time>2026-04-15T15:19:09.505Z</time></trkpt><trkpt lat="44.3420783" lon="9.2150133"><ele>143.0</ele><time>2026-04-15T15:19:10.504Z</time></trkpt><trkpt lat="44.34198" lon="9.2150317"><ele>143.0</ele><time>2026-04-15T15:19:11.504Z</time></trkpt><trkpt lat="44.341875" lon="9.21506"><ele>143.0</ele><time>2026-04-15T15:19:12.504Z</time></trkpt><trkpt lat="44.341785" lon="9.21508"><ele>143.0</ele><time>2026-04-15T15:19:13.505Z</time></trkpt><trkpt lat="44.3416967" lon="9.2150983"><ele>143.0</ele><time>2026-04-15T15:19:14.505Z</time></trkpt><trkpt lat="44.3416067" lon="9.2151217"><ele>143.0</ele><time>2026-04-15T15:19:15.504Z</time></trkpt><trkpt lat="44.34151" lon="9.2151483"><ele>143.0</ele><time>2026-04-15T15:19:16.504Z</time></trkpt><trkpt lat="44.3414117" lon="9.215175"><ele>143.0</ele><time>2026-04-15T15:19:17.505Z</time></trkpt><trkpt lat="44.3413117" lon="9.2151833"><ele>143.0</ele><time>2026-04-15T15:19:18.505Z</time></trkpt><trkpt lat="44.3412117" lon="9.21516"><ele>142.8</ele><time>2026-04-15T15:19:19.504Z</time></trkpt><trkpt lat="44.341115" lon="9.2151217"><ele>142.60000000000002</ele><time>2026-04-15T15:19:20.505Z</time></trkpt><trkpt lat="44.3410567" lon="9.2150283"><ele>142.39999999999998</ele><time>2026-04-15T15:19:21.504Z</time></trkpt><trkpt lat="44.341015" lon="9.2149067"><ele>142.2</ele><time>2026-04-15T15:19:22.505Z</time></trkpt><trkpt lat="44.340995" lon="9.21475"><ele>142.0</ele><time>2026-04-15T15:19:23.505Z</time></trkpt><trkpt lat="44.3409867" lon="9.2145883"><ele>142.0</ele><time>2026-04-15T15:19:24.505Z</time></trkpt><trkpt lat="44.3410083" lon="9.2144217"><ele>142.0</ele><time>2026-04-15T15:19:25.505Z</time></trkpt><trkpt lat="44.34105" lon="9.2142367"><ele>142.0</ele><time>2026-04-15T15:19:26.504Z</time></trkpt><trkpt lat="44.34108" lon="9.2140717"><ele>142.0</ele><time>2026-04-15T15:19:27.504Z</time></trkpt><trkpt lat="44.34111" lon="9.2139183"><ele>141.25</ele><time>2026-04-15T15:19:28.504Z</time></trkpt><trkpt lat="44.3411267" lon="9.2137633"><ele>140.5</ele><time>2026-04-15T15:19:29.505Z</time></trkpt><trkpt lat="44.3411317" lon="9.213605"><ele>139.75</ele><time>2026-04-15T15:19:30.504Z</time></trkpt><trkpt lat="44.341135" lon="9.2134433"><ele>139.0</ele><time>2026-04-15T15:19:31.504Z</time></trkpt><trkpt lat="44.3411567" lon="9.2132783"><ele>137.75</ele><time>2026-04-15T15:19:32.505Z</time></trkpt><trkpt lat="44.341195" lon="9.2131283"><ele>136.5</ele><time>2026-04-15T15:19:33.504Z</time></trkpt><trkpt lat="44.341255" lon="9.21298"><ele>135.25</ele><time>2026-04-15T15:19:34.504Z</time></trkpt><trkpt lat="44.3413217" lon="9.2128417"><ele>134.0</ele><time>2026-04-15T15:19:35.505Z</time></trkpt><trkpt lat="44.3413717" lon="9.212695"><ele>142.0</ele><time>2026-04-15T15:19:36.505Z</time></trkpt><trkpt lat="44.3414083" lon="9.212545"><ele>150.0</ele><time>2026-04-15T15:19:37.504Z</time></trkpt><trkpt lat="44.341425" lon="9.2123867"><ele>158.0</ele><time>2026-04-15T15:19:38.505Z</time></trkpt><trkpt lat="44.3414317" lon="9.2122233"><ele>166.0</ele><time>2026-04-15T15:19:39.504Z</time></trkpt><trkpt lat="44.3414317" lon="9.2120617"><ele>166.25</ele><time>2026-04-15T15:19:40.505Z</time></trkpt><trkpt lat="44.3414283" lon="9.2119"><ele>166.5</ele><time>2026-04-15T15:19:41.505Z</time></trkpt><trkpt lat="44.34141" lon="9.2117433"><ele>166.75</ele><time>2026-04-15T15:19:42.504Z</time></trkpt><trkpt lat="44.3413817" lon="9.21159"><ele>167.0</ele><time>2026-04-15T15:19:43.505Z</time></trkpt><trkpt lat="44.3413467" lon="9.2114433"><ele>158.75</ele><time>2026-04-15T15:19:44.505Z</time></trkpt><trkpt lat="44.3413133" lon="9.2112917"><ele>150.5</ele><time>2026-04-15T15:19:45.504Z</time></trkpt><trkpt lat="44.3412867" lon="9.2111433"><ele>142.25</ele><time>2026-04-15T15:19:46.504Z</time></trkpt><trkpt lat="44.3412767" lon="9.2109883"><ele>134.0</ele><time>2026-04-15T15:19:47.505Z</time></trkpt><trkpt lat="44.341285" lon="9.2108267"><ele>134.0</ele><time>2026-04-15T15:19:48.505Z</time></trkpt><trkpt lat="44.3412967" lon="9.21066"><ele>134.0</ele><time>2026-04-15T15:19:49.504Z</time></trkpt><trkpt lat="44.3413117" lon="9.2104917"><ele>134.0</ele><time>2026-04-15T15:19:50.505Z</time></trkpt><trkpt lat="44.3413267" lon="9.210325"><ele>134.0</ele><time>2026-04-15T15:19:51.505Z</time></trkpt><trkpt lat="44.3413383" lon="9.2101567"><ele>133.5</ele><time>2026-04-15T15:19:52.504Z</time></trkpt><trkpt lat="44.34135" lon="9.209985"><ele>133.0</ele><time>2026-04-15T15:19:53.505Z</time></trkpt><trkpt lat="44.3413667" lon="9.2098133"><ele>132.5</ele><time>2026-04-15T15:19:54.504Z</time></trkpt><trkpt lat="44.3413817" lon="9.2096417"><ele>132.0</ele><time>2026-04-15T15:19:55.504Z</time></trkpt><trkpt lat="44.3413967" lon="9.2094767"><ele>142.0</ele><time>2026-04-15T15:19:56.504Z</time></trkpt><trkpt lat="44.3414083" lon="9.2093"><ele>152.0</ele><time>2026-04-15T15:19:57.505Z</time></trkpt><trkpt lat="44.34142" lon="9.2091317"><ele>162.0</ele><time>2026-04-15T15:19:58.504Z</time></trkpt><trkpt lat="44.341425" lon="9.2089617"><ele>172.0</ele><time>2026-04-15T15:19:59.505Z</time></trkpt><trkpt lat="44.3414233" lon="9.2087983"><ele>172.25</ele><time>2026-04-15T15:20:00.505Z</time></trkpt><trkpt lat="44.34141" lon="9.2086383"><ele>172.5</ele><time>2026-04-15T15:20:01.505Z</time></trkpt><trkpt lat="44.3413933" lon="9.2084817"><ele>172.75</ele><time>2026-04-15T15:20:02.505Z</time></trkpt><trkpt lat="44.3413833" lon="9.2083233"><ele>173.0</ele><time>2026-04-15T15:20:03.505Z</time></trkpt><trkpt lat="44.3413783" lon="9.20816"><ele>173.0</ele><time>2026-04-15T15:20:04.504Z</time></trkpt><trkpt lat="44.3413833" lon="9.207995"><ele>173.0</ele><time>2026-04-15T15:20:05.504Z</time></trkpt><trkpt lat="44.3413933" lon="9.20783"><ele>173.0</ele><time>2026-04-15T15:20:06.505Z</time></trkpt><trkpt lat="44.341405" lon="9.2076683"><ele>173.0</ele><time>2026-04-15T15:20:07.504Z</time></trkpt><trkpt lat="44.3414133" lon="9.2075067"><ele>173.0</ele><time>2026-04-15T15:20:08.505Z</time></trkpt><trkpt lat="44.3414217" lon="9.2073467"><ele>173.0</ele><time>2026-04-15T15:20:09.505Z</time></trkpt><trkpt lat="44.3414283" lon="9.207195"><ele>173.0</ele><time>2026-04-15T15:20:10.504Z</time></trkpt><trkpt lat="44.3414383" lon="9.2070467"><ele>173.0</ele><time>2026-04-15T15:20:11.505Z</time></trkpt><trkpt lat="44.3414533" lon="9.2069"><ele>173.0</ele><time>2026-04-15T15:20:12.505Z</time></trkpt><trkpt lat="44.34146" lon="9.206745"><ele>172.75</ele><time>2026-04-15T15:20:13.504Z</time></trkpt><trkpt lat="44.3414633" lon="9.2065867"><ele>172.5</ele><time>2026-04-15T15:20:14.504Z</time></trkpt><trkpt lat="44.341455" lon="9.2064333"><ele>172.25</ele><time>2026-04-15T15:20:15.504Z</time></trkpt><trkpt lat="44.3414333" lon="9.206275"><ele>172.0</ele><time>2026-04-15T15:20:16.504Z</time></trkpt><trkpt lat="44.3413933" lon="9.2061233"><ele>166.79999999999998</ele><time>2026-04-15T15:20:17.504Z</time></trkpt><trkpt lat="44.341345" lon="9.20598"><ele>161.6</ele><time>2026-04-15T15:20:18.504Z</time></trkpt><trkpt lat="44.341295" lon="9.20586"><ele>156.39999999999998</ele><time>2026-04-15T15:20:19.505Z</time></trkpt><trkpt lat="44.3412583" lon="9.20574"><ele>151.2</ele><time>2026-04-15T15:20:20.505Z</time></trkpt><trkpt lat="44.341255" lon="9.205615"><ele>146.0</ele><time>2026-04-15T15:20:21.504Z</time></trkpt><trkpt lat="44.341275" lon="9.20549"><ele>145.5</ele><time>2026-04-15T15:20:22.504Z</time></trkpt><trkpt lat="44.34131" lon="9.2053433"><ele>145.0</ele><time>2026-04-15T15:20:23.504Z</time></trkpt><trkpt lat="44.3413433" lon="9.2051883"><ele>144.5</ele><time>2026-04-15T15:20:24.504Z</time></trkpt><trkpt lat="44.3413733" lon="9.2050333"><ele>144.0</ele><time>2026-04-15T15:20:25.505Z</time></trkpt><trkpt lat="44.3413983" lon="9.2048783"><ele>145.6</ele><time>2026-04-15T15:20:26.505Z</time></trkpt><trkpt lat="44.3414083" lon="9.2047267"><ele>147.2</ele><time>2026-04-15T15:20:27.504Z</time></trkpt><trkpt lat="44.3413933" lon="9.2045733"><ele>148.79999999999998</ele><time>2026-04-15T15:20:28.505Z</time></trkpt><trkpt lat="44.341355" lon="9.2044383"><ele>150.4</ele><time>2026-04-15T15:20:29.504Z</time></trkpt><trkpt lat="44.341295" lon="9.204305"><ele>152.0</ele><time>2026-04-15T15:20:30.505Z</time></trkpt><trkpt lat="44.3412283" lon="9.2041833"><ele>152.0</ele><time>2026-04-15T15:20:31.505Z</time></trkpt><trkpt lat="44.341165" lon="9.204055"><ele>152.0</ele><time>2026-04-15T15:20:32.504Z</time></trkpt><trkpt lat="44.3411167" lon="9.2039217"><ele>152.0</ele><time>2026-04-15T15:20:33.505Z</time></trkpt><trkpt lat="44.34109" lon="9.2037783"><ele>152.0</ele><time>2026-04-15T15:20:34.504Z</time></trkpt><trkpt lat="44.3410817" lon="9.20363"><ele>152.0</ele><time>2026-04-15T15:20:35.505Z</time></trkpt><trkpt lat="44.3410817" lon="9.20349"><ele>152.5</ele><time>2026-04-15T15:20:36.505Z</time></trkpt><trkpt lat="44.341085" lon="9.203335"><ele>153.0</ele><time>2026-04-15T15:20:37.504Z</time></trkpt><trkpt lat="44.3410917" lon="9.203165"><ele>153.5</ele><time>2026-04-15T15:20:38.504Z</time></trkpt><trkpt lat="44.3411" lon="9.2030033"><ele>154.0</ele><time>2026-04-15T15:20:39.504Z</time></trkpt><trkpt lat="44.3411017" lon="9.2028533"><ele>154.6</ele><time>2026-04-15T15:20:40.504Z</time></trkpt><trkpt lat="44.3411017" lon="9.202705"><ele>155.2</ele><time>2026-04-15T15:20:41.504Z</time></trkpt><trkpt lat="44.341105" lon="9.2025533"><ele>155.79999999999998</ele><time>2026-04-15T15:20:42.505Z</time></trkpt><trkpt lat="44.3411117" lon="9.2024067"><ele>156.4</ele><time>2026-04-15T15:20:43.504Z</time></trkpt><trkpt lat="44.3411117" lon="9.2022583"><ele>157.0</ele><time>2026-04-15T15:20:44.505Z</time></trkpt><trkpt lat="44.3411083" lon="9.2021183"><ele>159.39999999999998</ele><time>2026-04-15T15:20:45.505Z</time></trkpt><trkpt lat="44.3410883" lon="9.20198"><ele>161.79999999999998</ele><time>2026-04-15T15:20:46.505Z</time></trkpt><trkpt lat="44.3410517" lon="9.201845"><ele>164.2</ele><time>2026-04-15T15:20:47.504Z</time></trkpt><trkpt lat="44.3409967" lon="9.2017167"><ele>166.6</ele><time>2026-04-15T15:20:48.505Z</time></trkpt><trkpt lat="44.3409267" lon="9.2016"><ele>169.0</ele><time>2026-04-15T15:20:49.505Z</time></trkpt><trkpt lat="44.3408483" lon="9.2014867"><ele>171.0</ele><time>2026-04-15T15:20:50.505Z</time></trkpt><trkpt lat="44.34078" lon="9.2013667"><ele>173.0</ele><time>2026-04-15T15:20:51.504Z</time></trkpt><trkpt lat="44.3407383" lon="9.2012367"><ele>175.0</ele><time>2026-04-15T15:20:52.504Z</time></trkpt><trkpt lat="44.34073" lon="9.2011"><ele>177.0</ele><time>2026-04-15T15:20:53.504Z</time></trkpt><trkpt lat="44.34074" lon="9.20096"><ele>179.0</ele><time>2026-04-15T15:20:54.504Z</time></trkpt><trkpt lat="44.3407433" lon="9.2008233"><ele>179.0</ele><time>2026-04-15T15:20:55.505Z</time></trkpt><trkpt lat="44.3407317" lon="9.20067"><ele>179.0</ele><time>2026-04-15T15:20:56.504Z</time></trkpt><trkpt lat="44.3407017" lon="9.200515"><ele>179.0</ele><time>2026-04-15T15:20:57.505Z</time></trkpt><trkpt lat="44.3406583" lon="9.2003633"><ele>179.0</ele><time>2026-04-15T15:20:58.504Z</time></trkpt><trkpt lat="44.34061" lon="9.200215"><ele>181.2</ele><time>2026-04-15T15:20:59.504Z</time></trkpt><trkpt lat="44.3405583" lon="9.20008"><ele>183.39999999999998</ele><time>2026-04-15T15:21:00.504Z</time></trkpt><trkpt lat="44.340505" lon="9.199945"><ele>185.6</ele><time>2026-04-15T15:21:01.505Z</time></trkpt><trkpt lat="44.3404417" lon="9.199825"><ele>187.8</ele><time>2026-04-15T15:21:02.504Z</time></trkpt><trkpt lat="44.3403667" lon="9.19972"><ele>190.0</ele><time>2026-04-15T15:21:03.505Z</time></trkpt><trkpt lat="44.340295" lon="9.1996183"><ele>185.0</ele><time>2026-04-15T15:21:04.504Z</time></trkpt><trkpt lat="44.34023" lon="9.1995183"><ele>180.0</ele><time>2026-04-15T15:21:05.505Z</time></trkpt><trkpt lat="44.340175" lon="9.199415"><ele>175.0</ele><time>2026-04-15T15:21:06.504Z</time></trkpt><trkpt lat="44.3401367" lon="9.19929"><ele>170.0</ele><time>2026-04-15T15:21:07.504Z</time></trkpt><trkpt lat="44.340125" lon="9.19915"><ele>165.0</ele><time>2026-04-15T15:21:08.504Z</time></trkpt><trkpt lat="44.3401283" lon="9.1990133"><ele>164.6</ele><time>2026-04-15T15:21:09.505Z</time></trkpt><trkpt lat="44.34015" lon="9.1988767"><ele>164.2</ele><time>2026-04-15T15:21:10.504Z</time></trkpt><trkpt lat="44.340175" lon="9.1987433"><ele>163.8</ele><time>2026-04-15T15:21:11.504Z</time></trkpt><trkpt lat="44.340215" lon="9.1986083"><ele>163.4</ele><time>2026-04-15T15:21:12.505Z</time></trkpt><trkpt lat="44.3402583" lon="9.1984633"><ele>163.0</ele><time>2026-04-15T15:21:13.505Z</time></trkpt><trkpt lat="44.3402983" lon="9.1983183"><ele>163.0</ele><time>2026-04-15T15:21:14.504Z</time></trkpt><trkpt lat="44.3403383" lon="9.1981833"><ele>163.0</ele><time>2026-04-15T15:21:15.504Z</time></trkpt><trkpt lat="44.34038" lon="9.1980483"><ele>163.0</ele><time>2026-04-15T15:21:16.504Z</time></trkpt><trkpt lat="44.3404233" lon="9.1979167"><ele>163.0</ele><time>2026-04-15T15:21:17.504Z</time></trkpt><trkpt lat="44.3404667" lon="9.1977917"><ele>163.0</ele><time>2026-04-15T15:21:18.504Z</time></trkpt><trkpt lat="44.3404983" lon="9.1976633"><ele>163.0</ele><time>2026-04-15T15:21:19.504Z</time></trkpt><trkpt lat="44.3405133" lon="9.1975333"><ele>163.0</ele><time>2026-04-15T15:21:20.505Z</time></trkpt><trkpt lat="44.3405083" lon="9.1973967"><ele>163.0</ele><time>2026-04-15T15:21:21.505Z</time></trkpt><trkpt lat="44.3404833" lon="9.1972717"><ele>163.0</ele><time>2026-04-15T15:21:22.504Z</time></trkpt><trkpt lat="44.3404517" lon="9.197145"><ele>163.0</ele><time>2026-04-15T15:21:23.505Z</time></trkpt><trkpt lat="44.3404183" lon="9.1970183"><ele>163.60000000000002</ele><time>2026-04-15T15:21:24.504Z</time></trkpt><trkpt lat="44.34038" lon="9.1968867"><ele>164.20000000000002</ele><time>2026-04-15T15:21:25.504Z</time></trkpt><trkpt lat="44.3403533" lon="9.19675"><ele>164.8</ele><time>2026-04-15T15:21:26.504Z</time></trkpt><trkpt lat="44.3403417" lon="9.19661"><ele>165.4</ele><time>2026-04-15T15:21:27.504Z</time></trkpt><trkpt lat="44.3403433" lon="9.1964717"><ele>166.0</ele><time>2026-04-15T15:21:28.505Z</time></trkpt><trkpt lat="44.3403517" lon="9.196325"><ele>166.8</ele><time>2026-04-15T15:21:29.505Z</time></trkpt><trkpt lat="44.3403583" lon="9.1961833"><ele>167.60000000000002</ele><time>2026-04-15T15:21:30.504Z</time></trkpt><trkpt lat="44.34036" lon="9.1960417"><ele>168.4</ele><time>2026-04-15T15:21:31.505Z</time></trkpt><trkpt lat="44.3403633" lon="9.1958883"><ele>169.2</ele><time>2026-04-15T15:21:32.504Z</time></trkpt><trkpt lat="44.3403517" lon="9.1957367"><ele>170.0</ele><time>2026-04-15T15:21:33.504Z</time></trkpt><trkpt lat="44.3403233" lon="9.1955917"><ele>171.2</ele><time>2026-04-15T15:21:34.504Z</time></trkpt><trkpt lat="44.340285" lon="9.1954533"><ele>172.4</ele><time>2026-04-15T15:21:35.504Z</time></trkpt><trkpt lat="44.3402417" lon="9.1953167"><ele>173.60000000000002</ele><time>2026-04-15T15:21:36.505Z</time></trkpt><trkpt lat="44.3402" lon="9.1951817"><ele>174.8</ele><time>2026-04-15T15:21:37.504Z</time></trkpt><trkpt lat="44.3401567" lon="9.1950467"><ele>176.0</ele><time>2026-04-15T15:21:38.504Z</time></trkpt><trkpt lat="44.3401167" lon="9.1949033"><ele>177.0</ele><time>2026-04-15T15:21:39.504Z</time></trkpt><trkpt lat="44.3400833" lon="9.1947583"><ele>178.0</ele><time>2026-04-15T15:21:40.504Z</time></trkpt><trkpt lat="44.3400617" lon="9.194605"><ele>179.0</ele><time>2026-04-15T15:21:41.505Z</time></trkpt><trkpt lat="44.34004" lon="9.1944483"><ele>180.0</ele><time>2026-04-15T15:21:42.505Z</time></trkpt><trkpt lat="44.34002" lon="9.1942933"><ele>181.0</ele><time>2026-04-15T15:21:43.504Z</time></trkpt><trkpt lat="44.3400017" lon="9.19414"><ele>182.20000000000002</ele><time>2026-04-15T15:21:44.504Z</time></trkpt><trkpt lat="44.3399883" lon="9.1939867"><ele>183.4</ele><time>2026-04-15T15:21:45.505Z</time></trkpt><trkpt lat="44.3399683" lon="9.1938383"><ele>184.6</ele><time>2026-04-15T15:21:46.505Z</time></trkpt><trkpt lat="44.3399417" lon="9.193695"><ele>185.8</ele><time>2026-04-15T15:21:47.504Z</time></trkpt><trkpt lat="44.339905" lon="9.1935583"><ele>187.0</ele><time>2026-04-15T15:21:48.504Z</time></trkpt><trkpt lat="44.3398667" lon="9.1934183"><ele>187.0</ele><time>2026-04-15T15:21:49.504Z</time></trkpt><trkpt lat="44.33982" lon="9.1932867"><ele>187.0</ele><time>2026-04-15T15:21:50.505Z</time></trkpt><trkpt lat="44.339775" lon="9.1931517"><ele>187.0</ele><time>2026-04-15T15:21:51.504Z</time></trkpt><trkpt lat="44.339735" lon="9.1930117"><ele>187.0</ele><time>2026-04-15T15:21:52.504Z</time></trkpt><trkpt lat="44.3397033" lon="9.192865"><ele>187.0</ele><time>2026-04-15T15:21:53.505Z</time></trkpt><trkpt lat="44.339675" lon="9.1927067"><ele>181.25</ele><time>2026-04-15T15:21:54.504Z</time></trkpt><trkpt lat="44.339645" lon="9.1925467"><ele>175.5</ele><time>2026-04-15T15:21:55.504Z</time></trkpt><trkpt lat="44.3396183" lon="9.19239"><ele>169.75</ele><time>2026-04-15T15:21:56.505Z</time></trkpt><trkpt lat="44.3395967" lon="9.192235"><ele>164.0</ele><time>2026-04-15T15:21:57.505Z</time></trkpt><trkpt lat="44.3395967" lon="9.1920717"><ele>164.0</ele><time>2026-04-15T15:21:58.505Z</time></trkpt><trkpt lat="44.3396133" lon="9.191915"><ele>164.0</ele><time>2026-04-15T15:21:59.504Z</time></trkpt><trkpt lat="44.3396433" lon="9.1917633"><ele>164.0</ele><time>2026-04-15T15:22:00.505Z</time></trkpt><trkpt lat="44.339675" lon="9.19163"><ele>164.0</ele><time>2026-04-15T15:22:01.505Z</time></trkpt><trkpt lat="44.3396983" lon="9.1915083"><ele>164.0</ele><time>2026-04-15T15:22:02.504Z</time></trkpt><trkpt lat="44.33971" lon="9.1914"><ele>165.0</ele><time>2026-04-15T15:22:03.505Z</time></trkpt><trkpt lat="44.3397267" lon="9.1912533"><ele>166.0</ele><time>2026-04-15T15:22:05.504Z</time></trkpt><trkpt lat="44.3397067" lon="9.1911033"><ele>167.0</ele><time>2026-04-15T15:23:36.507Z</time></trkpt><trkpt lat="44.339665" lon="9.1910233"><ele>168.0</ele><time>2026-04-15T15:23:40.506Z</time></trkpt><trkpt lat="44.33962" lon="9.19093"><ele>169.0</ele><time>2026-04-15T15:23:41.506Z</time></trkpt><trkpt lat="44.3395767" lon="9.19082"><ele>169.0</ele><time>2026-04-15T15:23:42.505Z</time></trkpt><trkpt lat="44.339545" lon="9.1907033"><ele>169.0</ele><time>2026-04-15T15:23:43.505Z</time></trkpt><trkpt lat="44.3395167" lon="9.190575"><ele>169.0</ele><time>2026-04-15T15:23:44.505Z</time></trkpt><trkpt lat="44.3394983" lon="9.1904383"><ele>169.0</ele><time>2026-04-15T15:23:45.506Z</time></trkpt><trkpt lat="44.3394933" lon="9.1902917"><ele>169.0</ele><time>2026-04-15T15:23:46.506Z</time></trkpt><trkpt lat="44.3394883" lon="9.1901267"><ele>171.0</ele><time>2026-04-15T15:23:47.506Z</time></trkpt><trkpt lat="44.339495" lon="9.189955"><ele>173.0</ele><time>2026-04-15T15:23:48.506Z</time></trkpt><trkpt lat="44.3395133" lon="9.1897783"><ele>175.0</ele><time>2026-04-15T15:23:49.505Z</time></trkpt><trkpt lat="44.33954" lon="9.1896033"><ele>177.0</ele><time>2026-04-15T15:23:50.506Z</time></trkpt><trkpt lat="44.339575" lon="9.189425"><ele>178.0</ele><time>2026-04-15T15:23:51.506Z</time></trkpt><trkpt lat="44.3396083" lon="9.189255"><ele>179.0</ele><time>2026-04-15T15:23:52.506Z</time></trkpt><trkpt lat="44.3396283" lon="9.1890933"><ele>180.0</ele><time>2026-04-15T15:23:53.506Z</time></trkpt><trkpt lat="44.33964" lon="9.1889333"><ele>181.0</ele><time>2026-04-15T15:23:54.506Z</time></trkpt><trkpt lat="44.33963" lon="9.1887783"><ele>181.5</ele><time>2026-04-15T15:23:55.505Z</time></trkpt><trkpt lat="44.339605" lon="9.1886067"><ele>182.0</ele><time>2026-04-15T15:23:56.506Z</time></trkpt><trkpt lat="44.33957" lon="9.1884383"><ele>182.5</ele><time>2026-04-15T15:23:57.505Z</time></trkpt><trkpt lat="44.3395317" lon="9.1882683"><ele>183.0</ele><time>2026-04-15T15:23:58.506Z</time></trkpt><trkpt lat="44.3394867" lon="9.188085"><ele>184.25</ele><time>2026-04-15T15:23:59.506Z</time></trkpt><trkpt lat="44.33944" lon="9.1879"><ele>185.5</ele><time>2026-04-15T15:24:00.505Z</time></trkpt><trkpt lat="44.33939" lon="9.1877167"><ele>186.75</ele><time>2026-04-15T15:24:01.506Z</time></trkpt><trkpt lat="44.33934" lon="9.1875267"><ele>188.0</ele><time>2026-04-15T15:24:02.505Z</time></trkpt><trkpt lat="44.33928" lon="9.187335"><ele>188.5</ele><time>2026-04-15T15:24:03.506Z</time></trkpt><trkpt lat="44.339215" lon="9.1871333"><ele>189.0</ele><time>2026-04-15T15:24:04.505Z</time></trkpt><trkpt lat="44.3391683" lon="9.1869283"><ele>189.5</ele><time>2026-04-15T15:24:05.506Z</time></trkpt><trkpt lat="44.3391367" lon="9.186745"><ele>190.0</ele><time>2026-04-15T15:24:06.506Z</time></trkpt><trkpt lat="44.33913" lon="9.1865683"><ele>190.6</ele><time>2026-04-15T15:24:07.506Z</time></trkpt><trkpt lat="44.33912" lon="9.18643"><ele>191.2</ele><time>2026-04-15T15:24:08.506Z</time></trkpt><trkpt lat="44.3391133" lon="9.1863383"><ele>191.8</ele><time>2026-04-15T15:24:09.506Z</time></trkpt><trkpt lat="44.3391017" lon="9.1862317"><ele>192.4</ele><time>2026-04-15T15:24:11.505Z</time></trkpt><trkpt lat="44.3390883" lon="9.186115"><ele>193.0</ele><time>2026-04-15T15:24:13.505Z</time></trkpt><trkpt lat="44.339085" lon="9.1859133"><ele>193.0</ele><time>2026-04-15T15:24:15.506Z</time></trkpt><trkpt lat="44.339085" lon="9.1857883"><ele>193.0</ele><time>2026-04-15T15:24:16.506Z</time></trkpt><trkpt lat="44.339085" lon="9.185645"><ele>193.0</ele><time>2026-04-15T15:24:17.505Z</time></trkpt><trkpt lat="44.3390833" lon="9.1854917"><ele>193.0</ele><time>2026-04-15T15:24:18.506Z</time></trkpt><trkpt lat="44.3390933" lon="9.1853283"><ele>193.0</ele><time>2026-04-15T15:24:19.506Z</time></trkpt><trkpt lat="44.3391233" lon="9.1851583"><ele>195.0</ele><time>2026-04-15T15:24:20.505Z</time></trkpt><trkpt lat="44.3391617" lon="9.18499"><ele>197.0</ele><time>2026-04-15T15:24:21.505Z</time></trkpt><trkpt lat="44.3392" lon="9.1848117"><ele>199.0</ele><time>2026-04-15T15:24:22.505Z</time></trkpt><trkpt lat="44.339225" lon="9.1846283"><ele>201.0</ele><time>2026-04-15T15:24:23.506Z</time></trkpt><trkpt lat="44.3392283" lon="9.1844467"><ele>203.25</ele><time>2026-04-15T15:24:24.505Z</time></trkpt><trkpt lat="44.339225" lon="9.1842617"><ele>205.5</ele><time>2026-04-15T15:24:25.505Z</time></trkpt><trkpt lat="44.3392383" lon="9.1840783"><ele>207.75</ele><time>2026-04-15T15:24:26.505Z</time></trkpt><trkpt lat="44.3392717" lon="9.1838967"><ele>210.0</ele><time>2026-04-15T15:24:27.505Z</time></trkpt><trkpt lat="44.3393083" lon="9.1837167"><ele>212.25</ele><time>2026-04-15T15:24:28.506Z</time></trkpt><trkpt lat="44.3393283" lon="9.1835333"><ele>214.5</ele><time>2026-04-15T15:24:29.506Z</time></trkpt><trkpt lat="44.3393283" lon="9.183345"><ele>216.75</ele><time>2026-04-15T15:24:30.506Z</time></trkpt><trkpt lat="44.339325" lon="9.1831483"><ele>219.0</ele><time>2026-04-15T15:24:31.506Z</time></trkpt><trkpt lat="44.3393367" lon="9.18295"><ele>221.25</ele><time>2026-04-15T15:24:32.505Z</time></trkpt><trkpt lat="44.339365" lon="9.1827533"><ele>223.5</ele><time>2026-04-15T15:24:33.506Z</time></trkpt><trkpt lat="44.3394033" lon="9.1825817"><ele>225.75</ele><time>2026-04-15T15:24:34.505Z</time></trkpt><trkpt lat="44.3394433" lon="9.1824283"><ele>228.0</ele><time>2026-04-15T15:24:35.505Z</time></trkpt><trkpt lat="44.3394917" lon="9.1822867"><ele>229.0</ele><time>2026-04-15T15:24:36.505Z</time></trkpt><trkpt lat="44.339555" lon="9.18216"><ele>230.0</ele><time>2026-04-15T15:24:37.506Z</time></trkpt><trkpt lat="44.33964" lon="9.18205"><ele>231.0</ele><time>2026-04-15T15:24:38.506Z</time></trkpt><trkpt lat="44.339735" lon="9.1819567"><ele>232.0</ele><time>2026-04-15T15:24:39.505Z</time></trkpt><trkpt lat="44.3398383" lon="9.181905"><ele>232.0</ele><time>2026-04-15T15:24:40.506Z</time></trkpt><trkpt lat="44.3399517" lon="9.1818967"><ele>232.0</ele><time>2026-04-15T15:24:41.506Z</time></trkpt><trkpt lat="44.3400767" lon="9.1819217"><ele>232.0</ele><time>2026-04-15T15:24:42.505Z</time></trkpt><trkpt lat="44.3402083" lon="9.1819483"><ele>232.0</ele><time>2026-04-15T15:24:43.506Z</time></trkpt><trkpt lat="44.340345" lon="9.1819717"><ele>232.0</ele><time>2026-04-15T15:24:44.505Z</time></trkpt><trkpt lat="44.3404883" lon="9.1819967"><ele>232.0</ele><time>2026-04-15T15:24:45.505Z</time></trkpt><trkpt lat="44.34064" lon="9.1820183"><ele>232.0</ele><time>2026-04-15T15:24:46.505Z</time></trkpt><trkpt lat="44.3407917" lon="9.1820417"><ele>232.0</ele><time>2026-04-15T15:24:47.506Z</time></trkpt><trkpt lat="44.3409467" lon="9.1820667"><ele>233.75</ele><time>2026-04-15T15:24:48.506Z</time></trkpt><trkpt lat="44.3411" lon="9.1820883"><ele>235.5</ele><time>2026-04-15T15:24:49.506Z</time></trkpt><trkpt lat="44.3412467" lon="9.18211"><ele>237.25</ele><time>2026-04-15T15:24:50.506Z</time></trkpt><trkpt lat="44.3413883" lon="9.18213"><ele>239.0</ele><time>2026-04-15T15:24:51.506Z</time></trkpt><trkpt lat="44.341525" lon="9.182155"><ele>240.75</ele><time>2026-04-15T15:24:52.505Z</time></trkpt><trkpt lat="44.34166" lon="9.182195"><ele>242.5</ele><time>2026-04-15T15:24:53.505Z</time></trkpt><trkpt lat="44.3417917" lon="9.1822383"><ele>244.25</ele><time>2026-04-15T15:24:54.506Z</time></trkpt><trkpt lat="44.34191" lon="9.182325"><ele>246.0</ele><time>2026-04-15T15:24:55.506Z</time></trkpt><trkpt lat="44.342025" lon="9.18243"><ele>245.0</ele><time>2026-04-15T15:24:56.506Z</time></trkpt><trkpt lat="44.34214" lon="9.1825483"><ele>244.0</ele><time>2026-04-15T15:24:57.506Z</time></trkpt><trkpt lat="44.3422533" lon="9.18267"><ele>243.0</ele><time>2026-04-15T15:24:58.506Z</time></trkpt><trkpt lat="44.3423733" lon="9.1827817"><ele>242.0</ele><time>2026-04-15T15:24:59.506Z</time></trkpt><trkpt lat="44.34249" lon="9.1829067"><ele>242.0</ele><time>2026-04-15T15:25:00.506Z</time></trkpt><trkpt lat="44.342595" lon="9.1830433"><ele>242.0</ele><time>2026-04-15T15:25:01.505Z</time></trkpt><trkpt lat="44.342685" lon="9.1831917"><ele>242.0</ele><time>2026-04-15T15:25:02.506Z</time></trkpt><trkpt lat="44.3427917" lon="9.183325"><ele>242.0</ele><time>2026-04-15T15:25:03.506Z</time></trkpt><trkpt lat="44.3429" lon="9.1834383"><ele>241.5</ele><time>2026-04-15T15:25:04.506Z</time></trkpt><trkpt lat="44.3430183" lon="9.18353"><ele>241.0</ele><time>2026-04-15T15:25:05.506Z</time></trkpt><trkpt lat="44.343135" lon="9.1835967"><ele>240.5</ele><time>2026-04-15T15:25:06.506Z</time></trkpt><trkpt lat="44.3432517" lon="9.1836433"><ele>240.0</ele><time>2026-04-15T15:25:07.506Z</time></trkpt><trkpt lat="44.3433583" lon="9.1836567"><ele>240.0</ele><time>2026-04-15T15:25:08.506Z</time></trkpt><trkpt lat="44.3434583" lon="9.1836367"><ele>240.0</ele><time>2026-04-15T15:25:09.505Z</time></trkpt><trkpt lat="44.3435533" lon="9.183555"><ele>240.0</ele><time>2026-04-15T15:25:10.506Z</time></trkpt><trkpt lat="44.3436317" lon="9.18341"><ele>240.0</ele><time>2026-04-15T15:25:11.506Z</time></trkpt><trkpt lat="44.3436717" lon="9.1832517"><ele>241.0</ele><time>2026-04-15T15:25:12.506Z</time></trkpt><trkpt lat="44.3436917" lon="9.1830783"><ele>242.0</ele><time>2026-04-15T15:25:13.505Z</time></trkpt><trkpt lat="44.34371" lon="9.1828817"><ele>243.0</ele><time>2026-04-15T15:25:14.505Z</time></trkpt><trkpt lat="44.3437283" lon="9.1826683"><ele>244.0</ele><time>2026-04-15T15:25:15.505Z</time></trkpt><trkpt lat="44.3437467" lon="9.18245"><ele>247.33333333333331</ele><time>2026-04-15T15:25:16.505Z</time></trkpt><trkpt lat="44.34377" lon="9.1822317"><ele>250.66666666666669</ele><time>2026-04-15T15:25:17.506Z</time></trkpt><trkpt lat="44.3437883" lon="9.1820167"><ele>254.0</ele><time>2026-04-15T15:25:18.506Z</time></trkpt><trkpt lat="44.3438017" lon="9.181815"><ele>254.0</ele><time>2026-04-15T15:25:19.505Z</time></trkpt><trkpt lat="44.3438217" lon="9.181615"><ele>254.0</ele><time>2026-04-15T15:25:20.506Z</time></trkpt><trkpt lat="44.3438417" lon="9.1814217"><ele>254.0</ele><time>2026-04-15T15:25:21.506Z</time></trkpt><trkpt lat="44.3438617" lon="9.18123"><ele>254.0</ele><time>2026-04-15T15:25:22.505Z</time></trkpt><trkpt lat="44.34388" lon="9.181035"><ele>255.25</ele><time>2026-04-15T15:25:23.505Z</time></trkpt><trkpt lat="44.34389" lon="9.18084"><ele>256.5</ele><time>2026-04-15T15:25:24.505Z</time></trkpt><trkpt lat="44.3438867" lon="9.1806433"><ele>257.75</ele><time>2026-04-15T15:25:25.505Z</time></trkpt><trkpt lat="44.343865" lon="9.1804483"><ele>259.0</ele><time>2026-04-15T15:25:26.506Z</time></trkpt><trkpt lat="44.3438283" lon="9.1802533"><ele>259.0</ele><time>2026-04-15T15:25:27.506Z</time></trkpt><trkpt lat="44.34381" lon="9.1800717"><ele>259.0</ele><time>2026-04-15T15:25:28.505Z</time></trkpt><trkpt lat="44.343795" lon="9.179875"><ele>259.0</ele><time>2026-04-15T15:25:29.506Z</time></trkpt><trkpt lat="44.3437983" lon="9.1796767"><ele>259.0</ele><time>2026-04-15T15:25:30.506Z</time></trkpt><trkpt lat="44.3438033" lon="9.17948"><ele>259.25</ele><time>2026-04-15T15:25:31.506Z</time></trkpt><trkpt lat="44.3438033" lon="9.179285"><ele>259.5</ele><time>2026-04-15T15:25:32.505Z</time></trkpt><trkpt lat="44.3438133" lon="9.1790883"><ele>259.75</ele><time>2026-04-15T15:25:33.506Z</time></trkpt><trkpt lat="44.34382" lon="9.1789017"><ele>260.0</ele><time>2026-04-15T15:25:34.506Z</time></trkpt><trkpt lat="44.3438283" lon="9.1787167"><ele>260.0</ele><time>2026-04-15T15:25:35.506Z</time></trkpt><trkpt lat="44.343835" lon="9.1785317"><ele>260.0</ele><time>2026-04-15T15:25:36.505Z</time></trkpt><trkpt lat="44.3438433" lon="9.1783517"><ele>260.0</ele><time>2026-04-15T15:25:37.506Z</time></trkpt><trkpt lat="44.343855" lon="9.1781667"><ele>260.0</ele><time>2026-04-15T15:25:38.505Z</time></trkpt><trkpt lat="44.343875" lon="9.1779833"><ele>255.25</ele><time>2026-04-15T15:25:39.506Z</time></trkpt><trkpt lat="44.3439017" lon="9.17779"><ele>250.5</ele><time>2026-04-15T15:25:40.505Z</time></trkpt><trkpt lat="44.34393" lon="9.1776"><ele>245.75</ele><time>2026-04-15T15:25:41.505Z</time></trkpt><trkpt lat="44.34394" lon="9.1774233"><ele>241.0</ele><time>2026-04-15T15:25:42.506Z</time></trkpt><trkpt lat="44.3439433" lon="9.1772483"><ele>240.0</ele><time>2026-04-15T15:25:43.506Z</time></trkpt><trkpt lat="44.3439117" lon="9.177085"><ele>239.0</ele><time>2026-04-15T15:25:44.505Z</time></trkpt><trkpt lat="44.3438533" lon="9.1769183"><ele>238.0</ele><time>2026-04-15T15:25:45.506Z</time></trkpt><trkpt lat="44.34378" lon="9.17674"><ele>237.0</ele><time>2026-04-15T15:25:46.505Z</time></trkpt><trkpt lat="44.3437" lon="9.1765517"><ele>242.0</ele><time>2026-04-15T15:25:47.506Z</time></trkpt><trkpt lat="44.34362" lon="9.1763467"><ele>247.0</ele><time>2026-04-15T15:25:48.505Z</time></trkpt><trkpt lat="44.3435383" lon="9.1761367"><ele>252.0</ele><time>2026-04-15T15:25:49.505Z</time></trkpt><trkpt lat="44.3434583" lon="9.1759333"><ele>252.0</ele><time>2026-04-15T15:25:50.505Z</time></trkpt><trkpt lat="44.3433833" lon="9.1757483"><ele>252.0</ele><time>2026-04-15T15:25:51.506Z</time></trkpt><trkpt lat="44.3433033" lon="9.1755767"><ele>252.0</ele><time>2026-04-15T15:25:52.505Z</time></trkpt><trkpt lat="44.3432117" lon="9.1754267"><ele>252.0</ele><time>2026-04-15T15:25:53.505Z</time></trkpt><trkpt lat="44.3430967" lon="9.1753083"><ele>249.5</ele><time>2026-04-15T15:25:54.506Z</time></trkpt><trkpt lat="44.34296" lon="9.17522"><ele>247.0</ele><time>2026-04-15T15:25:55.506Z</time></trkpt><trkpt lat="44.3428167" lon="9.1751633"><ele>244.5</ele><time>2026-04-15T15:25:56.506Z</time></trkpt><trkpt lat="44.3426733" lon="9.1751483"><ele>242.0</ele><time>2026-04-15T15:25:57.506Z</time></trkpt><trkpt lat="44.34254" lon="9.17517"><ele>242.0</ele><time>2026-04-15T15:25:58.506Z</time></trkpt><trkpt lat="44.3424133" lon="9.17521"><ele>242.0</ele><time>2026-04-15T15:25:59.505Z</time></trkpt><trkpt lat="44.3422883" lon="9.1752567"><ele>242.0</ele><time>2026-04-15T15:26:00.506Z</time></trkpt><trkpt lat="44.3421667" lon="9.1752983"><ele>242.0</ele><time>2026-04-15T15:26:01.506Z</time></trkpt><trkpt lat="44.3420333" lon="9.1753183"><ele>243.25</ele><time>2026-04-15T15:26:02.505Z</time></trkpt><trkpt lat="44.3419" lon="9.1753017"><ele>244.5</ele><time>2026-04-15T15:26:03.506Z</time></trkpt><trkpt lat="44.3417667" lon="9.1752667"><ele>245.75</ele><time>2026-04-15T15:26:04.505Z</time></trkpt><trkpt lat="44.3416383" lon="9.1752183"><ele>247.0</ele><time>2026-04-15T15:26:05.505Z</time></trkpt><trkpt lat="44.341515" lon="9.175165"><ele>247.0</ele><time>2026-04-15T15:26:06.505Z</time></trkpt><trkpt lat="44.341405" lon="9.1751067"><ele>247.0</ele><time>2026-04-15T15:26:07.505Z</time></trkpt><trkpt lat="44.3413133" lon="9.1750333"><ele>247.0</ele><time>2026-04-15T15:26:08.506Z</time></trkpt><trkpt lat="44.3412417" lon="9.1749333"><ele>247.0</ele><time>2026-04-15T15:26:09.505Z</time></trkpt><trkpt lat="44.3412083" lon="9.1747983"><ele>247.0</ele><time>2026-04-15T15:26:10.505Z</time></trkpt><trkpt lat="44.3412133" lon="9.1746617"><ele>248.0</ele><time>2026-04-15T15:26:11.506Z</time></trkpt><trkpt lat="44.3412667" lon="9.17453"><ele>249.0</ele><time>2026-04-15T15:26:12.505Z</time></trkpt><trkpt lat="44.3413533" lon="9.1744067"><ele>250.0</ele><time>2026-04-15T15:26:13.505Z</time></trkpt><trkpt lat="44.3414633" lon="9.1743"><ele>251.0</ele><time>2026-04-15T15:26:14.506Z</time></trkpt><trkpt lat="44.34158" lon="9.174185"><ele>251.0</ele><time>2026-04-15T15:26:15.506Z</time></trkpt><trkpt lat="44.34169" lon="9.1740617"><ele>251.0</ele><time>2026-04-15T15:26:16.505Z</time></trkpt><trkpt lat="44.3417983" lon="9.173925"><ele>251.0</ele><time>2026-04-15T15:26:17.506Z</time></trkpt><trkpt lat="44.3419" lon="9.1738"><ele>251.0</ele><time>2026-04-15T15:26:18.505Z</time></trkpt><trkpt lat="44.3420017" lon="9.1736783"><ele>252.4</ele><time>2026-04-15T15:26:19.505Z</time></trkpt><trkpt lat="44.3421017" lon="9.1736033"><ele>253.8</ele><time>2026-04-15T15:26:20.505Z</time></trkpt><trkpt lat="44.3422033" lon="9.1735733"><ele>255.20000000000002</ele><time>2026-04-15T15:26:21.506Z</time></trkpt><trkpt lat="44.34231" lon="9.1735633"><ele>256.6</ele><time>2026-04-15T15:26:22.505Z</time></trkpt><trkpt lat="44.3424233" lon="9.17356"><ele>258.0</ele><time>2026-04-15T15:26:23.506Z</time></trkpt><trkpt lat="44.342535" lon="9.1735383"><ele>258.0</ele><time>2026-04-15T15:26:24.505Z</time></trkpt><trkpt lat="44.3426467" lon="9.1734783"><ele>258.0</ele><time>2026-04-15T15:26:25.506Z</time></trkpt><trkpt lat="44.3427483" lon="9.17338"><ele>258.0</ele><time>2026-04-15T15:26:26.506Z</time></trkpt><trkpt lat="44.3428517" lon="9.1732767"><ele>258.0</ele><time>2026-04-15T15:26:27.505Z</time></trkpt><trkpt lat="44.3429617" lon="9.1731867"><ele>260.4</ele><time>2026-04-15T15:26:28.506Z</time></trkpt><trkpt lat="44.3430533" lon="9.1730933"><ele>262.8</ele><time>2026-04-15T15:26:29.506Z</time></trkpt><trkpt lat="44.34312" lon="9.1730183"><ele>265.2</ele><time>2026-04-15T15:26:30.506Z</time></trkpt><trkpt lat="44.3431967" lon="9.1729267"><ele>267.6</ele><time>2026-04-15T15:26:32.505Z</time></trkpt><trkpt lat="44.3432467" lon="9.1728717"><ele>270.0</ele><time>2026-04-15T15:26:34.505Z</time></trkpt><trkpt lat="44.3433217" lon="9.17279"><ele>270.0</ele><time>2026-04-15T15:26:36.506Z</time></trkpt><trkpt lat="44.3433817" lon="9.1726867"><ele>270.0</ele><time>2026-04-15T15:26:38.505Z</time></trkpt><trkpt lat="44.3434233" lon="9.1725817"><ele>270.0</ele><time>2026-04-15T15:26:40.506Z</time></trkpt><trkpt lat="44.3434333" lon="9.1724867"><ele>270.0</ele><time>2026-04-15T15:26:42.505Z</time></trkpt><trkpt lat="44.3434583" lon="9.1723667"><ele>270.0</ele><time>2026-04-15T15:26:45.506Z</time></trkpt><trkpt lat="44.3434967" lon="9.172255"><ele>270.0</ele><time>2026-04-15T15:26:47.505Z</time></trkpt><trkpt lat="44.3435567" lon="9.172115"><ele>269.25</ele><time>2026-04-15T15:26:49.506Z</time></trkpt><trkpt lat="44.3436133" lon="9.1719667"><ele>268.5</ele><time>2026-04-15T15:26:51.506Z</time></trkpt><trkpt lat="44.3436633" lon="9.171805"><ele>267.75</ele><time>2026-04-15T15:26:53.506Z</time></trkpt><trkpt lat="44.34369" lon="9.1717233"><ele>267.0</ele><time>2026-04-15T15:26:54.506Z</time></trkpt><trkpt lat="44.34378" lon="9.17126"><ele>267.0</ele><time>2026-04-15T15:26:57.512Z</time></trkpt><trkpt lat="44.3437733" lon="9.1711683"><ele>267.0</ele><time>2026-04-15T15:26:58.512Z</time></trkpt><trkpt lat="44.3437917" lon="9.1710267"><ele>267.0</ele><time>2026-04-15T15:26:59.511Z</time></trkpt><trkpt lat="44.34384" lon="9.1708983"><ele>267.0</ele><time>2026-04-15T15:27:00.511Z</time></trkpt><trkpt lat="44.34385" lon="9.1708067"><ele>267.0</ele><time>2026-04-15T15:27:01.511Z</time></trkpt><trkpt lat="44.3438717" lon="9.1707167"><ele>267.0</ele><time>2026-04-15T15:27:02.512Z</time></trkpt><trkpt lat="44.3439533" lon="9.1706"><ele>266.8333333333333</ele><time>2026-04-15T15:27:04.512Z</time></trkpt><trkpt lat="44.3440417" lon="9.170565"><ele>266.6666666666667</ele><time>2026-04-15T15:27:06.512Z</time></trkpt><trkpt lat="44.3441517" lon="9.1706283"><ele>266.5</ele><time>2026-04-15T15:27:08.511Z</time></trkpt><trkpt lat="44.3442117" lon="9.1706817"><ele>266.33333333333337</ele><time>2026-04-15T15:27:09.512Z</time></trkpt><trkpt lat="44.3442867" lon="9.17072"><ele>266.1666666666667</ele><time>2026-04-15T15:27:10.511Z</time></trkpt><trkpt lat="44.3443667" lon="9.1707283"><ele>266.0</ele><time>2026-04-15T15:27:11.511Z</time></trkpt><trkpt lat="44.344445" lon="9.1707083"><ele>264.2</ele><time>2026-04-15T15:27:12.511Z</time></trkpt><trkpt lat="44.3445183" lon="9.1706433"><ele>262.40000000000003</ele><time>2026-04-15T15:27:13.511Z</time></trkpt><trkpt lat="44.3446083" lon="9.1705683"><ele>260.6</ele><time>2026-04-15T15:27:14.511Z</time></trkpt><trkpt lat="44.3447017" lon="9.1705"><ele>258.8</ele><time>2026-04-15T15:27:15.512Z</time></trkpt><trkpt lat="44.3447917" lon="9.1704533"><ele>257.0</ele><time>2026-04-15T15:27:16.512Z</time></trkpt><trkpt lat="44.344865" lon="9.170415"><ele>257.0</ele><time>2026-04-15T15:27:17.512Z</time></trkpt><trkpt lat="44.3449833" lon="9.1703933"><ele>257.0</ele><time>2026-04-15T15:27:19.512Z</time></trkpt><trkpt lat="44.3451183" lon="9.17038"><ele>257.0</ele><time>2026-04-15T15:27:21.511Z</time></trkpt><trkpt lat="44.345205" lon="9.1703733"><ele>257.0</ele><time>2026-04-15T15:27:22.512Z</time></trkpt><trkpt lat="44.3452967" lon="9.1703733"><ele>257.0</ele><time>2026-04-15T15:27:23.512Z</time></trkpt><trkpt lat="44.3453867" lon="9.17036"><ele>257.0</ele><time>2026-04-15T15:27:24.511Z</time></trkpt><trkpt lat="44.34548" lon="9.1703383"><ele>257.0</ele><time>2026-04-15T15:27:25.512Z</time></trkpt><trkpt lat="44.3455717" lon="9.1702817"><ele>257.0</ele><time>2026-04-15T15:27:26.512Z</time></trkpt><trkpt lat="44.3456433" lon="9.1701967"><ele>257.0</ele><time>2026-04-15T15:27:27.512Z</time></trkpt><trkpt lat="44.3457167" lon="9.17014"><ele>257.0</ele><time>2026-04-15T15:27:28.512Z</time></trkpt><trkpt lat="44.3457933" lon="9.170115"><ele>259.0</ele><time>2026-04-15T15:27:29.512Z</time></trkpt><trkpt lat="44.34588" lon="9.1701367"><ele>261.0</ele><time>2026-04-15T15:27:30.512Z</time></trkpt><trkpt lat="44.3459767" lon="9.1701533"><ele>263.0</ele><time>2026-04-15T15:27:31.511Z</time></trkpt><trkpt lat="44.3460817" lon="9.170175"><ele>265.0</ele><time>2026-04-15T15:27:32.511Z</time></trkpt><trkpt lat="44.3462017" lon="9.1701733"><ele>267.0</ele><time>2026-04-15T15:27:33.511Z</time></trkpt><trkpt lat="44.3463267" lon="9.17016"><ele>269.0</ele><time>2026-04-15T15:27:34.512Z</time></trkpt><trkpt lat="44.346455" lon="9.1701367"><ele>271.0</ele><time>2026-04-15T15:27:35.512Z</time></trkpt><trkpt lat="44.3465833" lon="9.170095"><ele>273.0</ele><time>2026-04-15T15:27:36.512Z</time></trkpt><trkpt lat="44.3467133" lon="9.1700483"><ele>275.0</ele><time>2026-04-15T15:27:37.511Z</time></trkpt><trkpt lat="44.3468383" lon="9.169995"><ele>275.0</ele><time>2026-04-15T15:27:38.512Z</time></trkpt><trkpt lat="44.3469683" lon="9.1699483"><ele>275.0</ele><time>2026-04-15T15:27:39.511Z</time></trkpt><trkpt lat="44.3470933" lon="9.1699267"><ele>275.0</ele><time>2026-04-15T15:27:40.512Z</time></trkpt><trkpt lat="44.3472117" lon="9.1699433"><ele>275.0</ele><time>2026-04-15T15:27:41.512Z</time></trkpt><trkpt lat="44.347325" lon="9.169985"><ele>276.25</ele><time>2026-04-15T15:27:42.512Z</time></trkpt><trkpt lat="44.347455" lon="9.1700417"><ele>277.5</ele><time>2026-04-15T15:27:43.512Z</time></trkpt><trkpt lat="44.347575" lon="9.1701"><ele>278.75</ele><time>2026-04-15T15:27:44.512Z</time></trkpt><trkpt lat="44.3476783" lon="9.1701483"><ele>280.0</ele><time>2026-04-15T15:27:45.512Z</time></trkpt><trkpt lat="44.347775" lon="9.170175"><ele>280.0</ele><time>2026-04-15T15:27:46.512Z</time></trkpt><trkpt lat="44.3478667" lon="9.1701767"><ele>280.0</ele><time>2026-04-15T15:27:47.511Z</time></trkpt><trkpt lat="44.34796" lon="9.1701233"><ele>280.0</ele><time>2026-04-15T15:27:48.512Z</time></trkpt><trkpt lat="44.348055" lon="9.1700333"><ele>280.0</ele><time>2026-04-15T15:27:49.512Z</time></trkpt><trkpt lat="44.3481617" lon="9.169945"><ele>280.0</ele><time>2026-04-15T15:27:50.512Z</time></trkpt><trkpt lat="44.3482783" lon="9.1698467"><ele>282.75</ele><time>2026-04-15T15:27:51.511Z</time></trkpt><trkpt lat="44.3483983" lon="9.1697483"><ele>285.5</ele><time>2026-04-15T15:27:52.512Z</time></trkpt><trkpt lat="44.34851" lon="9.169665"><ele>288.25</ele><time>2026-04-15T15:27:53.512Z</time></trkpt><trkpt lat="44.3486267" lon="9.1696033"><ele>291.0</ele><time>2026-04-15T15:27:54.511Z</time></trkpt><trkpt lat="44.34876" lon="9.1695583"><ele>290.5</ele><time>2026-04-15T15:27:55.511Z</time></trkpt><trkpt lat="44.3488933" lon="9.1695117"><ele>290.0</ele><time>2026-04-15T15:27:56.512Z</time></trkpt><trkpt lat="44.3490233" lon="9.1694633"><ele>289.5</ele><time>2026-04-15T15:27:57.512Z</time></trkpt><trkpt lat="44.349155" lon="9.1694167"><ele>289.0</ele><time>2026-04-15T15:27:58.51Z</time></trkpt><trkpt lat="44.3492883" lon="9.1693667"><ele>289.0</ele><time>2026-04-15T15:27:59.511Z</time></trkpt><trkpt lat="44.3494083" lon="9.16931"><ele>289.0</ele><time>2026-04-15T15:28:00.511Z</time></trkpt><trkpt lat="44.3495217" lon="9.169245"><ele>289.0</ele><time>2026-04-15T15:28:01.51Z</time></trkpt><trkpt lat="44.3496283" lon="9.1691567"><ele>289.0</ele><time>2026-04-15T15:28:02.511Z</time></trkpt><trkpt lat="44.349715" lon="9.1690533"><ele>291.59999999999997</ele><time>2026-04-15T15:28:03.51Z</time></trkpt><trkpt lat="44.3498017" lon="9.1689667"><ele>294.2</ele><time>2026-04-15T15:28:04.51Z</time></trkpt><trkpt lat="44.3498917" lon="9.168915"><ele>296.79999999999995</ele><time>2026-04-15T15:28:05.511Z</time></trkpt><trkpt lat="44.3499933" lon="9.1688917"><ele>299.4</ele><time>2026-04-15T15:28:06.51Z</time></trkpt><trkpt lat="44.3501033" lon="9.1689"><ele>302.0</ele><time>2026-04-15T15:28:07.51Z</time></trkpt><trkpt lat="44.3502167" lon="9.1689417"><ele>302.0</ele><time>2026-04-15T15:28:08.51Z</time></trkpt><trkpt lat="44.3503367" lon="9.1689883"><ele>302.0</ele><time>2026-04-15T15:28:09.511Z</time></trkpt><trkpt lat="44.3504617" lon="9.1690117"><ele>302.0</ele><time>2026-04-15T15:28:10.511Z</time></trkpt><trkpt lat="44.3505883" lon="9.1690217"><ele>302.0</ele><time>2026-04-15T15:28:11.51Z</time></trkpt><trkpt lat="44.350715" lon="9.169025"><ele>295.25</ele><time>2026-04-15T15:28:12.511Z</time></trkpt><trkpt lat="44.3508367" lon="9.1690367"><ele>288.5</ele><time>2026-04-15T15:28:13.511Z</time></trkpt><trkpt lat="44.3509583" lon="9.1690533"><ele>281.75</ele><time>2026-04-15T15:28:14.511Z</time></trkpt><trkpt lat="44.3510833" lon="9.1690967"><ele>275.0</ele><time>2026-04-15T15:28:15.511Z</time></trkpt><trkpt lat="44.3512017" lon="9.16917"><ele>275.0</ele><time>2026-04-15T15:28:16.511Z</time></trkpt><trkpt lat="44.3513133" lon="9.1692667"><ele>275.0</ele><time>2026-04-15T15:28:17.51Z</time></trkpt><trkpt lat="44.3514183" lon="9.1693767"><ele>275.0</ele><time>2026-04-15T15:28:18.511Z</time></trkpt><trkpt lat="44.3515317" lon="9.1694933"><ele>275.0</ele><time>2026-04-15T15:28:19.511Z</time></trkpt><trkpt lat="44.3516467" lon="9.1696167"><ele>271.75</ele><time>2026-04-15T15:28:20.511Z</time></trkpt><trkpt lat="44.3517633" lon="9.1697383"><ele>268.5</ele><time>2026-04-15T15:28:21.511Z</time></trkpt><trkpt lat="44.3518817" lon="9.1698517"><ele>265.25</ele><time>2026-04-15T15:28:22.51Z</time></trkpt><trkpt lat="44.3520033" lon="9.16996"><ele>262.0</ele><time>2026-04-15T15:28:23.511Z</time></trkpt><trkpt lat="44.35212" lon="9.17007"><ele>270.0</ele><time>2026-04-15T15:28:24.511Z</time></trkpt><trkpt lat="44.3522333" lon="9.1701867"><ele>278.0</ele><time>2026-04-15T15:28:25.51Z</time></trkpt><trkpt lat="44.352335" lon="9.1703"><ele>286.0</ele><time>2026-04-15T15:28:26.51Z</time></trkpt><trkpt lat="44.3524317" lon="9.1704017"><ele>294.0</ele><time>2026-04-15T15:28:27.511Z</time></trkpt><trkpt lat="44.35252" lon="9.170495"><ele>294.0</ele><time>2026-04-15T15:28:28.51Z</time></trkpt><trkpt lat="44.3526067" lon="9.1705833"><ele>294.0</ele><time>2026-04-15T15:28:29.511Z</time></trkpt><trkpt lat="44.3526883" lon="9.1706733"><ele>294.0</ele><time>2026-04-15T15:28:30.511Z</time></trkpt><trkpt lat="44.3527733" lon="9.17076"><ele>294.0</ele><time>2026-04-15T15:28:31.51Z</time></trkpt><trkpt lat="44.3528533" lon="9.1708483"><ele>294.0</ele><time>2026-04-15T15:28:32.511Z</time></trkpt><trkpt lat="44.3529333" lon="9.1709283"><ele>288.8</ele><time>2026-04-15T15:28:33.511Z</time></trkpt><trkpt lat="44.3530167" lon="9.1709883"><ele>283.59999999999997</ele><time>2026-04-15T15:28:34.51Z</time></trkpt><trkpt lat="44.3530983" lon="9.1710183"><ele>278.4</ele><time>2026-04-15T15:28:35.51Z</time></trkpt><trkpt lat="44.3531817" lon="9.17101"><ele>273.2</ele><time>2026-04-15T15:28:36.511Z</time></trkpt><trkpt lat="44.35327" lon="9.170945"><ele>268.0</ele><time>2026-04-15T15:28:37.511Z</time></trkpt><trkpt lat="44.3533367" lon="9.1708417"><ele>268.0</ele><time>2026-04-15T15:28:38.511Z</time></trkpt><trkpt lat="44.3533933" lon="9.1707067"><ele>268.0</ele><time>2026-04-15T15:28:39.511Z</time></trkpt><trkpt lat="44.353455" lon="9.1705617"><ele>268.0</ele><time>2026-04-15T15:28:40.511Z</time></trkpt><trkpt lat="44.3535183" lon="9.17041"><ele>268.0</ele><time>2026-04-15T15:28:41.51Z</time></trkpt><trkpt lat="44.35359" lon="9.1702633"><ele>269.6</ele><time>2026-04-15T15:28:42.511Z</time></trkpt><trkpt lat="44.353665" lon="9.1701417"><ele>271.20000000000005</ele><time>2026-04-15T15:28:43.511Z</time></trkpt><trkpt lat="44.35374" lon="9.1700267"><ele>272.8</ele><time>2026-04-15T15:28:44.51Z</time></trkpt><trkpt lat="44.3538183" lon="9.169935"><ele>274.40000000000003</ele><time>2026-04-15T15:28:45.51Z</time></trkpt><trkpt lat="44.353895" lon="9.169895"><ele>276.0</ele><time>2026-04-15T15:28:46.511Z</time></trkpt><trkpt lat="44.3539683" lon="9.1698883"><ele>276.0</ele><time>2026-04-15T15:28:47.51Z</time></trkpt><trkpt lat="44.354045" lon="9.16993"><ele>276.0</ele><time>2026-04-15T15:28:48.511Z</time></trkpt><trkpt lat="44.3541167" lon="9.1700083"><ele>276.0</ele><time>2026-04-15T15:28:49.51Z</time></trkpt><trkpt lat="44.354195" lon="9.170115"><ele>276.0</ele><time>2026-04-15T15:28:50.511Z</time></trkpt><trkpt lat="44.3542767" lon="9.1702283"><ele>276.0</ele><time>2026-04-15T15:28:51.51Z</time></trkpt><trkpt lat="44.3543617" lon="9.1703267"><ele>276.0</ele><time>2026-04-15T15:28:52.511Z</time></trkpt><trkpt lat="44.35445" lon="9.170375"><ele>276.0</ele><time>2026-04-15T15:28:53.51Z</time></trkpt><trkpt lat="44.3545467" lon="9.1703833"><ele>276.0</ele><time>2026-04-15T15:28:54.51Z</time></trkpt><trkpt lat="44.3546483" lon="9.1703517"><ele>276.0</ele><time>2026-04-15T15:28:55.511Z</time></trkpt><trkpt lat="44.3547517" lon="9.1703067"><ele>276.0</ele><time>2026-04-15T15:28:56.51Z</time></trkpt><trkpt lat="44.354855" lon="9.1702583"><ele>277.0</ele><time>2026-04-15T15:28:57.51Z</time></trkpt><trkpt lat="44.3549517" lon="9.1701967"><ele>278.0</ele><time>2026-04-15T15:28:58.51Z</time></trkpt><trkpt lat="44.3550483" lon="9.170115"><ele>279.0</ele><time>2026-04-15T15:28:59.511Z</time></trkpt><trkpt lat="44.3551367" lon="9.170035"><ele>280.0</ele><time>2026-04-15T15:29:00.51Z</time></trkpt><trkpt lat="44.3552183" lon="9.1699633"><ele>281.0</ele><time>2026-04-15T15:29:01.511Z</time></trkpt><trkpt lat="44.3552933" lon="9.16992"><ele>281.0</ele><time>2026-04-15T15:29:02.511Z</time></trkpt><trkpt lat="44.35536" lon="9.1699133"><ele>281.0</ele><time>2026-04-15T15:29:03.511Z</time></trkpt><trkpt lat="44.3554333" lon="9.16998"><ele>281.0</ele><time>2026-04-15T15:29:04.51Z</time></trkpt><trkpt lat="44.355505" lon="9.1700767"><ele>281.0</ele><time>2026-04-15T15:29:05.511Z</time></trkpt><trkpt lat="44.3555867" lon="9.1702067"><ele>281.0</ele><time>2026-04-15T15:29:06.51Z</time></trkpt><trkpt lat="44.355675" lon="9.1703433"><ele>281.25</ele><time>2026-04-15T15:29:07.511Z</time></trkpt><trkpt lat="44.35577" lon="9.1704767"><ele>281.5</ele><time>2026-04-15T15:29:08.51Z</time></trkpt><trkpt lat="44.3558667" lon="9.1706183"><ele>281.75</ele><time>2026-04-15T15:29:09.511Z</time></trkpt><trkpt lat="44.3559683" lon="9.17077"><ele>282.0</ele><time>2026-04-15T15:29:10.511Z</time></trkpt><trkpt lat="44.3560733" lon="9.1709333"><ele>274.3333333333333</ele><time>2026-04-15T15:29:11.511Z</time></trkpt><trkpt lat="44.356175" lon="9.1711067"><ele>266.66666666666663</ele><time>2026-04-15T15:29:12.51Z</time></trkpt><trkpt lat="44.3562733" lon="9.171285"><ele>259.0</ele><time>2026-04-15T15:29:13.51Z</time></trkpt><trkpt lat="44.3563617" lon="9.17146"><ele>265.0</ele><time>2026-04-15T15:29:14.51Z</time></trkpt><trkpt lat="44.3564467" lon="9.171625"><ele>271.0</ele><time>2026-04-15T15:29:15.511Z</time></trkpt><trkpt lat="44.3565167" lon="9.171785"><ele>277.0</ele><time>2026-04-15T15:29:16.51Z</time></trkpt><trkpt lat="44.3565783" lon="9.1719567"><ele>283.0</ele><time>2026-04-15T15:29:17.51Z</time></trkpt><trkpt lat="44.356625" lon="9.17212"><ele>283.0</ele><time>2026-04-15T15:29:18.511Z</time></trkpt><trkpt lat="44.3566717" lon="9.1722733"><ele>283.0</ele><time>2026-04-15T15:29:19.511Z</time></trkpt><trkpt lat="44.356735" lon="9.1724083"><ele>283.0</ele><time>2026-04-15T15:29:20.511Z</time></trkpt><trkpt lat="44.3568183" lon="9.17253"><ele>283.0</ele><time>2026-04-15T15:29:21.51Z</time></trkpt><trkpt lat="44.3569183" lon="9.1726167"><ele>280.8</ele><time>2026-04-15T15:29:22.51Z</time></trkpt><trkpt lat="44.35703" lon="9.1726617"><ele>278.6</ele><time>2026-04-15T15:29:23.511Z</time></trkpt><trkpt lat="44.357135" lon="9.1726733"><ele>276.4</ele><time>2026-04-15T15:29:24.511Z</time></trkpt><trkpt lat="44.3572433" lon="9.1726783"><ele>274.2</ele><time>2026-04-15T15:29:25.511Z</time></trkpt><trkpt lat="44.35735" lon="9.172705"><ele>272.0</ele><time>2026-04-15T15:29:26.51Z</time></trkpt><trkpt lat="44.357455" lon="9.1727633"><ele>272.0</ele><time>2026-04-15T15:29:27.51Z</time></trkpt><trkpt lat="44.3575367" lon="9.1728617"><ele>272.0</ele><time>2026-04-15T15:29:28.511Z</time></trkpt><trkpt lat="44.3575967" lon="9.172995"><ele>272.0</ele><time>2026-04-15T15:29:29.51Z</time></trkpt><trkpt lat="44.3576317" lon="9.1731417"><ele>272.0</ele><time>2026-04-15T15:29:30.511Z</time></trkpt><trkpt lat="44.3576333" lon="9.1732833"><ele>272.0</ele><time>2026-04-15T15:29:31.511Z</time></trkpt><trkpt lat="44.3576267" lon="9.1734183"><ele>268.6</ele><time>2026-04-15T15:29:32.51Z</time></trkpt><trkpt lat="44.3576267" lon="9.173545"><ele>265.2</ele><time>2026-04-15T15:29:33.511Z</time></trkpt><trkpt lat="44.3576433" lon="9.1736583"><ele>261.8</ele><time>2026-04-15T15:29:34.511Z</time></trkpt><trkpt lat="44.3576833" lon="9.173765"><ele>258.4</ele><time>2026-04-15T15:29:35.51Z</time></trkpt><trkpt lat="44.357755" lon="9.1738433"><ele>255.0</ele><time>2026-04-15T15:29:36.51Z</time></trkpt><trkpt lat="44.3578533" lon="9.1739033"><ele>255.0</ele><time>2026-04-15T15:29:37.51Z</time></trkpt><trkpt lat="44.3579333" lon="9.173955"><ele>255.0</ele><time>2026-04-15T15:29:38.511Z</time></trkpt><trkpt lat="44.3579917" lon="9.1739933"><ele>255.0</ele><time>2026-04-15T15:29:39.511Z</time></trkpt><trkpt lat="44.35807" lon="9.1740517"><ele>255.0</ele><time>2026-04-15T15:29:41.51Z</time></trkpt><trkpt lat="44.3581817" lon="9.174125"><ele>255.0</ele><time>2026-04-15T15:30:09.511Z</time></trkpt><trkpt lat="44.3582883" lon="9.1742133"><ele>253.83333333333334</ele><time>2026-04-15T15:30:11.51Z</time></trkpt><trkpt lat="44.3583517" lon="9.1742683"><ele>252.66666666666669</ele><time>2026-04-15T15:30:12.51Z</time></trkpt><trkpt lat="44.3584233" lon="9.1743167"><ele>251.5</ele><time>2026-04-15T15:30:13.51Z</time></trkpt><trkpt lat="44.3585033" lon="9.1743417"><ele>250.33333333333334</ele><time>2026-04-15T15:30:14.51Z</time></trkpt><trkpt lat="44.3585917" lon="9.1743333"><ele>249.16666666666669</ele><time>2026-04-15T15:30:15.511Z</time></trkpt><trkpt lat="44.3586917" lon="9.1743"><ele>248.0</ele><time>2026-04-15T15:30:16.511Z</time></trkpt><trkpt lat="44.3588" lon="9.1742817"><ele>248.25</ele><time>2026-04-15T15:30:17.51Z</time></trkpt><trkpt lat="44.35891" lon="9.1742883"><ele>248.5</ele><time>2026-04-15T15:30:18.511Z</time></trkpt><trkpt lat="44.3590233" lon="9.17432"><ele>248.75</ele><time>2026-04-15T15:30:19.51Z</time></trkpt><trkpt lat="44.3591367" lon="9.17435"><ele>249.0</ele><time>2026-04-15T15:30:20.51Z</time></trkpt><trkpt lat="44.3592567" lon="9.1743583"><ele>249.0</ele><time>2026-04-15T15:30:21.51Z</time></trkpt><trkpt lat="44.3593817" lon="9.1743417"><ele>249.0</ele><time>2026-04-15T15:30:22.511Z</time></trkpt><trkpt lat="44.3595067" lon="9.174305"><ele>249.0</ele><time>2026-04-15T15:30:23.51Z</time></trkpt><trkpt lat="44.359635" lon="9.1742617"><ele>249.0</ele><time>2026-04-15T15:30:24.51Z</time></trkpt><trkpt lat="44.3597633" lon="9.1742233"><ele>247.79999999999998</ele><time>2026-04-15T15:30:25.511Z</time></trkpt><trkpt lat="44.3598867" lon="9.1741967"><ele>246.59999999999997</ele><time>2026-04-15T15:30:26.51Z</time></trkpt><trkpt lat="44.3599983" lon="9.1741683"><ele>245.4</ele><time>2026-04-15T15:30:27.511Z</time></trkpt><trkpt lat="44.360095" lon="9.1741483"><ele>244.2</ele><time>2026-04-15T15:30:28.51Z</time></trkpt><trkpt lat="44.3601867" lon="9.1741517"><ele>243.0</ele><time>2026-04-15T15:30:29.51Z</time></trkpt><trkpt lat="44.3602667" lon="9.1741967"><ele>243.0</ele><time>2026-04-15T15:30:30.51Z</time></trkpt><trkpt lat="44.3603333" lon="9.174275"><ele>243.0</ele><time>2026-04-15T15:30:31.511Z</time></trkpt><trkpt lat="44.3603783" lon="9.1743733"><ele>243.0</ele><time>2026-04-15T15:30:32.511Z</time></trkpt><trkpt lat="44.36041" lon="9.1744883"><ele>243.0</ele><time>2026-04-15T15:30:33.511Z</time></trkpt><trkpt lat="44.360425" lon="9.174615"><ele>243.0</ele><time>2026-04-15T15:30:34.51Z</time></trkpt><trkpt lat="44.3604433" lon="9.1747367"><ele>243.0</ele><time>2026-04-15T15:30:35.51Z</time></trkpt><trkpt lat="44.3604833" lon="9.1748517"><ele>243.8</ele><time>2026-04-15T15:30:36.511Z</time></trkpt><trkpt lat="44.3605433" lon="9.1749517"><ele>244.60000000000002</ele><time>2026-04-15T15:30:37.51Z</time></trkpt><trkpt lat="44.360625" lon="9.1750367"><ele>245.39999999999998</ele><time>2026-04-15T15:30:38.51Z</time></trkpt><trkpt lat="44.360715" lon="9.175105"><ele>246.2</ele><time>2026-04-15T15:30:39.511Z</time></trkpt><trkpt lat="44.3607983" lon="9.1751633"><ele>247.0</ele><time>2026-04-15T15:30:40.51Z</time></trkpt><trkpt lat="44.3608633" lon="9.17524"><ele>246.99999999999997</ele><time>2026-04-15T15:30:41.51Z</time></trkpt><trkpt lat="44.3608983" lon="9.1753283"><ele>247.0</ele><time>2026-04-15T15:30:42.511Z</time></trkpt><trkpt lat="44.3608983" lon="9.175425"><ele>247.0</ele><time>2026-04-15T15:30:43.511Z</time></trkpt><trkpt lat="44.360865" lon="9.1755183"><ele>247.0</ele><time>2026-04-15T15:30:44.51Z</time></trkpt><trkpt lat="44.3608" lon="9.1756067"><ele>246.99999999999997</ele><time>2026-04-15T15:30:45.51Z</time></trkpt><trkpt lat="44.360725" lon="9.1757"><ele>247.0</ele><time>2026-04-15T15:30:46.511Z</time></trkpt><trkpt lat="44.3606333" lon="9.1758067"><ele>246.25</ele><time>2026-04-15T15:30:47.511Z</time></trkpt><trkpt lat="44.3605483" lon="9.1759233"><ele>245.5</ele><time>2026-04-15T15:30:48.511Z</time></trkpt><trkpt lat="44.3604683" lon="9.1760583"><ele>244.75</ele><time>2026-04-15T15:30:49.511Z</time></trkpt><trkpt lat="44.3604017" lon="9.176205"><ele>244.0</ele><time>2026-04-15T15:30:50.51Z</time></trkpt><trkpt lat="44.36034" lon="9.1763633"><ele>236.25</ele><time>2026-04-15T15:30:51.511Z</time></trkpt><trkpt lat="44.3602783" lon="9.17653"><ele>228.5</ele><time>2026-04-15T15:30:52.51Z</time></trkpt><trkpt lat="44.360225" lon="9.1766983"><ele>220.75</ele><time>2026-04-15T15:30:53.51Z</time></trkpt><trkpt lat="44.3601667" lon="9.1768567"><ele>213.0</ele><time>2026-04-15T15:30:54.51Z</time></trkpt><trkpt lat="44.3601183" lon="9.177005"><ele>213.0</ele><time>2026-04-15T15:30:55.51Z</time></trkpt><trkpt lat="44.3600733" lon="9.1771333"><ele>213.0</ele><time>2026-04-15T15:30:56.511Z</time></trkpt><trkpt lat="44.3600267" lon="9.17725"><ele>213.0</ele><time>2026-04-15T15:30:57.51Z</time></trkpt><trkpt lat="44.3599783" lon="9.17735"><ele>213.0</ele><time>2026-04-15T15:30:58.511Z</time></trkpt><trkpt lat="44.35992" lon="9.1774333"><ele>213.0</ele><time>2026-04-15T15:30:59.511Z</time></trkpt><trkpt lat="44.3598533" lon="9.1774983"><ele>213.0</ele><time>2026-04-15T15:31:00.511Z</time></trkpt><trkpt lat="44.3597833" lon="9.1775517"><ele>215.0</ele><time>2026-04-15T15:31:01.51Z</time></trkpt><trkpt lat="44.3597217" lon="9.177605"><ele>217.0</ele><time>2026-04-15T15:31:02.51Z</time></trkpt><trkpt lat="44.3596683" lon="9.1776717"><ele>219.0</ele><time>2026-04-15T15:31:03.511Z</time></trkpt><trkpt lat="44.3596267" lon="9.1777533"><ele>221.0</ele><time>2026-04-15T15:31:04.511Z</time></trkpt><trkpt lat="44.3595917" lon="9.177845"><ele>223.00000000000003</ele><time>2026-04-15T15:31:05.511Z</time></trkpt><trkpt lat="44.3595583" lon="9.17794"><ele>225.0</ele><time>2026-04-15T15:31:06.51Z</time></trkpt><trkpt lat="44.3595283" lon="9.178035"><ele>227.0</ele><time>2026-04-15T15:31:07.51Z</time></trkpt><trkpt lat="44.3595067" lon="9.178135"><ele>227.00000000000003</ele><time>2026-04-15T15:31:08.511Z</time></trkpt><trkpt lat="44.3594933" lon="9.178235"><ele>227.0</ele><time>2026-04-15T15:31:09.511Z</time></trkpt><trkpt lat="44.3594933" lon="9.1783367"><ele>227.0</ele><time>2026-04-15T15:31:10.511Z</time></trkpt><trkpt lat="44.3595133" lon="9.17843"><ele>227.0</ele><time>2026-04-15T15:31:11.511Z</time></trkpt><trkpt lat="44.3595617" lon="9.1785083"><ele>227.00000000000003</ele><time>2026-04-15T15:31:12.51Z</time></trkpt><trkpt lat="44.3596267" lon="9.1785567"><ele>227.0</ele><time>2026-04-15T15:31:13.511Z</time></trkpt><trkpt lat="44.3597167" lon="9.17858"><ele>227.0</ele><time>2026-04-15T15:31:14.51Z</time></trkpt><trkpt lat="44.3598133" lon="9.1786"><ele>227.0</ele><time>2026-04-15T15:31:15.51Z</time></trkpt><trkpt lat="44.3599333" lon="9.17862"><ele>227.0</ele><time>2026-04-15T15:31:16.51Z</time></trkpt><trkpt lat="44.3600683" lon="9.1786367"><ele>227.0</ele><time>2026-04-15T15:31:17.51Z</time></trkpt><trkpt lat="44.360205" lon="9.1786583"><ele>227.0</ele><time>2026-04-15T15:31:18.51Z</time></trkpt><trkpt lat="44.3603367" lon="9.178685"><ele>227.0</ele><time>2026-04-15T15:31:19.51Z</time></trkpt><trkpt lat="44.36047" lon="9.1787117"><ele>227.0</ele><time>2026-04-15T15:31:20.51Z</time></trkpt><trkpt lat="44.3605967" lon="9.1787383"><ele>227.0</ele><time>2026-04-15T15:31:21.511Z</time></trkpt><trkpt lat="44.3607083" lon="9.1787617"><ele>228.83333333333334</ele><time>2026-04-15T15:31:22.511Z</time></trkpt><trkpt lat="44.3607967" lon="9.178785"><ele>230.66666666666669</ele><time>2026-04-15T15:31:23.511Z</time></trkpt><trkpt lat="44.3608733" lon="9.1788133"><ele>232.5</ele><time>2026-04-15T15:31:24.511Z</time></trkpt><trkpt lat="44.3609367" lon="9.1788717"><ele>234.33333333333331</ele><time>2026-04-15T15:31:25.511Z</time></trkpt><trkpt lat="44.3609567" lon="9.17897"><ele>236.16666666666666</ele><time>2026-04-15T15:31:26.511Z</time></trkpt><trkpt lat="44.3609533" lon="9.1790817"><ele>238.0</ele><time>2026-04-15T15:31:27.51Z</time></trkpt><trkpt lat="44.3609267" lon="9.1792067"><ele>232.5</ele><time>2026-04-15T15:31:28.511Z</time></trkpt><trkpt lat="44.3608867" lon="9.1793467"><ele>227.0</ele><time>2026-04-15T15:31:29.511Z</time></trkpt><trkpt lat="44.36084" lon="9.1794967"><ele>221.5</ele><time>2026-04-15T15:31:30.51Z</time></trkpt><trkpt lat="44.36079" lon="9.179655"><ele>216.0</ele><time>2026-04-15T15:31:31.51Z</time></trkpt><trkpt lat="44.3607367" lon="9.179825"><ele>214.0</ele><time>2026-04-15T15:31:32.51Z</time></trkpt><trkpt lat="44.3606933" lon="9.1799817"><ele>212.0</ele><time>2026-04-15T15:31:33.51Z</time></trkpt><trkpt lat="44.3606567" lon="9.1801367"><ele>210.0</ele><time>2026-04-15T15:31:34.51Z</time></trkpt><trkpt lat="44.3606217" lon="9.1803133"><ele>208.0</ele><time>2026-04-15T15:31:35.511Z</time></trkpt><trkpt lat="44.3605867" lon="9.1804967"><ele>208.0</ele><time>2026-04-15T15:31:36.511Z</time></trkpt><trkpt lat="44.3605533" lon="9.18068"><ele>208.0</ele><time>2026-04-15T15:31:37.511Z</time></trkpt><trkpt lat="44.3605283" lon="9.1808567"><ele>208.0</ele><time>2026-04-15T15:31:38.511Z</time></trkpt><trkpt lat="44.360525" lon="9.1810233"><ele>208.0</ele><time>2026-04-15T15:31:39.51Z</time></trkpt><trkpt lat="44.3605333" lon="9.1811733"><ele>208.4</ele><time>2026-04-15T15:31:40.51Z</time></trkpt><trkpt lat="44.36055" lon="9.1813217"><ele>208.8</ele><time>2026-04-15T15:31:41.511Z</time></trkpt><trkpt lat="44.3605467" lon="9.1814683"><ele>209.2</ele><time>2026-04-15T15:31:42.511Z</time></trkpt><trkpt lat="44.360505" lon="9.1816"><ele>209.6</ele><time>2026-04-15T15:31:43.511Z</time></trkpt><trkpt lat="44.3604317" lon="9.181705"><ele>210.0</ele><time>2026-04-15T15:31:44.511Z</time></trkpt><trkpt lat="44.3603367" lon="9.1817867"><ele>200.75</ele><time>2026-04-15T15:31:45.51Z</time></trkpt><trkpt lat="44.3602283" lon="9.18186"><ele>191.5</ele><time>2026-04-15T15:31:46.51Z</time></trkpt><trkpt lat="44.3601167" lon="9.181935"><ele>182.25</ele><time>2026-04-15T15:31:47.511Z</time></trkpt><trkpt lat="44.3600033" lon="9.1820117"><ele>173.0</ele><time>2026-04-15T15:31:48.51Z</time></trkpt><trkpt lat="44.3599" lon="9.1820817"><ele>173.0</ele><time>2026-04-15T15:31:49.511Z</time></trkpt><trkpt lat="44.3598083" lon="9.18215"><ele>173.0</ele><time>2026-04-15T15:31:50.51Z</time></trkpt><trkpt lat="44.3597467" lon="9.182225"><ele>173.0</ele><time>2026-04-15T15:31:51.511Z</time></trkpt><trkpt lat="44.3597167" lon="9.1823233"><ele>173.0</ele><time>2026-04-15T15:31:52.511Z</time></trkpt><trkpt lat="44.3597183" lon="9.1824267"><ele>173.0</ele><time>2026-04-15T15:31:53.511Z</time></trkpt><trkpt lat="44.3597683" lon="9.1825267"><ele>173.0</ele><time>2026-04-15T15:31:54.51Z</time></trkpt><trkpt lat="44.3598417" lon="9.1826217"><ele>172.33333333333331</ele><time>2026-04-15T15:31:55.511Z</time></trkpt><trkpt lat="44.359915" lon="9.182715"><ele>171.66666666666666</ele><time>2026-04-15T15:31:56.511Z</time></trkpt><trkpt lat="44.3599583" lon="9.1828117"><ele>171.0</ele><time>2026-04-15T15:31:57.511Z</time></trkpt><trkpt lat="44.359975" lon="9.1829167"><ele>170.33333333333334</ele><time>2026-04-15T15:31:58.511Z</time></trkpt><trkpt lat="44.3599617" lon="9.18302"><ele>169.66666666666669</ele><time>2026-04-15T15:31:59.51Z</time></trkpt><trkpt lat="44.3599133" lon="9.1831217"><ele>169.0</ele><time>2026-04-15T15:32:00.51Z</time></trkpt><trkpt lat="44.3598483" lon="9.18323"><ele>169.0</ele><time>2026-04-15T15:32:01.511Z</time></trkpt><trkpt lat="44.359805" lon="9.1833433"><ele>169.0</ele><time>2026-04-15T15:32:02.51Z</time></trkpt><trkpt lat="44.35979" lon="9.18347"><ele>169.0</ele><time>2026-04-15T15:32:03.51Z</time></trkpt><trkpt lat="44.359805" lon="9.18359"><ele>169.0</ele><time>2026-04-15T15:32:04.51Z</time></trkpt><trkpt lat="44.3598483" lon="9.1837033"><ele>169.0</ele><time>2026-04-15T15:32:05.511Z</time></trkpt><trkpt lat="44.3599183" lon="9.18381"><ele>169.0</ele><time>2026-04-15T15:32:06.511Z</time></trkpt><trkpt lat="44.3600133" lon="9.1839017"><ele>169.0</ele><time>2026-04-15T15:32:07.51Z</time></trkpt><trkpt lat="44.36011" lon="9.1839817"><ele>169.0</ele><time>2026-04-15T15:32:08.51Z</time></trkpt><trkpt lat="44.3601967" lon="9.18407"><ele>169.0</ele><time>2026-04-15T15:32:09.51Z</time></trkpt><trkpt lat="44.3602633" lon="9.1841617"><ele>169.0</ele><time>2026-04-15T15:32:10.511Z</time></trkpt><trkpt lat="44.3603" lon="9.1842667"><ele>165.6</ele><time>2026-04-15T15:32:11.511Z</time></trkpt><trkpt lat="44.3603117" lon="9.1843917"><ele>162.2</ele><time>2026-04-15T15:32:12.51Z</time></trkpt><trkpt lat="44.36029" lon="9.184505"><ele>158.79999999999998</ele><time>2026-04-15T15:32:13.51Z</time></trkpt><trkpt lat="44.3602283" lon="9.1846167"><ele>155.39999999999998</ele><time>2026-04-15T15:32:14.51Z</time></trkpt><trkpt lat="44.3601433" lon="9.184705"><ele>152.0</ele><time>2026-04-15T15:32:15.511Z</time></trkpt><trkpt lat="44.360055" lon="9.1847617"><ele>152.0</ele><time>2026-04-15T15:32:16.51Z</time></trkpt><trkpt lat="44.359965" lon="9.18482"><ele>152.0</ele><time>2026-04-15T15:32:17.511Z</time></trkpt><trkpt lat="44.3598867" lon="9.1848867"><ele>152.0</ele><time>2026-04-15T15:32:18.511Z</time></trkpt><trkpt lat="44.3598267" lon="9.1849517"><ele>152.0</ele><time>2026-04-15T15:32:19.51Z</time></trkpt><trkpt lat="44.3597967" lon="9.185035"><ele>152.0</ele><time>2026-04-15T15:32:20.511Z</time></trkpt><trkpt lat="44.3597917" lon="9.1851333"><ele>152.0</ele><time>2026-04-15T15:32:21.509Z</time></trkpt><trkpt lat="44.3598333" lon="9.1852467"><ele>150.75</ele><time>2026-04-15T15:32:22.51Z</time></trkpt><trkpt lat="44.3598933" lon="9.185365"><ele>149.5</ele><time>2026-04-15T15:32:23.509Z</time></trkpt><trkpt lat="44.359965" lon="9.185495"><ele>148.25</ele><time>2026-04-15T15:32:24.51Z</time></trkpt><trkpt lat="44.3600317" lon="9.18563"><ele>147.0</ele><time>2026-04-15T15:32:25.51Z</time></trkpt><trkpt lat="44.3600917" lon="9.1857617"><ele>145.0</ele><time>2026-04-15T15:32:26.51Z</time></trkpt><trkpt lat="44.3601383" lon="9.1859117"><ele>143.0</ele><time>2026-04-15T15:32:27.509Z</time></trkpt><trkpt lat="44.360165" lon="9.18605"><ele>141.0</ele><time>2026-04-15T15:32:28.509Z</time></trkpt><trkpt lat="44.36017" lon="9.1861767"><ele>139.0</ele><time>2026-04-15T15:32:29.51Z</time></trkpt><trkpt lat="44.3601467" lon="9.1862917"><ele>137.0</ele><time>2026-04-15T15:32:30.509Z</time></trkpt><trkpt lat="44.3600967" lon="9.1863967"><ele>137.0</ele><time>2026-04-15T15:32:31.51Z</time></trkpt><trkpt lat="44.3600217" lon="9.1865033"><ele>137.0</ele><time>2026-04-15T15:32:32.51Z</time></trkpt><trkpt lat="44.3599317" lon="9.1866017"><ele>137.0</ele><time>2026-04-15T15:32:33.509Z</time></trkpt><trkpt lat="44.3598467" lon="9.1866867"><ele>137.0</ele><time>2026-04-15T15:32:34.51Z</time></trkpt><trkpt lat="44.3597783" lon="9.1867633"><ele>137.0</ele><time>2026-04-15T15:32:35.509Z</time></trkpt><trkpt lat="44.3597433" lon="9.18685"><ele>135.5</ele><time>2026-04-15T15:32:36.509Z</time></trkpt><trkpt lat="44.35974" lon="9.1869417"><ele>134.0</ele><time>2026-04-15T15:32:37.509Z</time></trkpt><trkpt lat="44.359765" lon="9.1870417"><ele>132.5</ele><time>2026-04-15T15:32:38.51Z</time></trkpt><trkpt lat="44.3598033" lon="9.18715"><ele>131.0</ele><time>2026-04-15T15:32:39.509Z</time></trkpt><trkpt lat="44.3598367" lon="9.187275"><ele>129.5</ele><time>2026-04-15T15:32:40.51Z</time></trkpt><trkpt lat="44.3598667" lon="9.1874167"><ele>128.0</ele><time>2026-04-15T15:32:41.509Z</time></trkpt><trkpt lat="44.35989" lon="9.1875533"><ele>126.83333333333333</ele><time>2026-04-15T15:32:42.51Z</time></trkpt><trkpt lat="44.3599117" lon="9.1876783"><ele>125.66666666666666</ele><time>2026-04-15T15:32:43.509Z</time></trkpt><trkpt lat="44.3599233" lon="9.1877833"><ele>124.5</ele><time>2026-04-15T15:32:44.51Z</time></trkpt><trkpt lat="44.359935" lon="9.18787"><ele>123.33333333333334</ele><time>2026-04-15T15:32:45.51Z</time></trkpt><trkpt lat="44.3599267" lon="9.18802"><ele>122.16666666666667</ele><time>2026-04-15T15:32:47.509Z</time></trkpt><trkpt lat="44.359845" lon="9.1880783"><ele>121.0</ele><time>2026-04-15T15:32:49.509Z</time></trkpt><trkpt lat="44.3597667" lon="9.18796"><ele>121.00000000000001</ele><time>2026-04-15T15:32:51.51Z</time></trkpt><trkpt lat="44.3597467" lon="9.1878733"><ele>121.0</ele><time>2026-04-15T15:32:52.509Z</time></trkpt><trkpt lat="44.3597283" lon="9.1877783"><ele>121.0</ele><time>2026-04-15T15:32:53.51Z</time></trkpt><trkpt lat="44.3597083" lon="9.1876767"><ele>121.0</ele><time>2026-04-15T15:32:54.51Z</time></trkpt><trkpt lat="44.3596867" lon="9.18757"><ele>121.00000000000001</ele><time>2026-04-15T15:32:55.51Z</time></trkpt><trkpt lat="44.3596583" lon="9.1874667"><ele>121.0</ele><time>2026-04-15T15:32:56.51Z</time></trkpt><trkpt lat="44.3596117" lon="9.1873633"><ele>118.00000000000001</ele><time>2026-04-15T15:32:57.509Z</time></trkpt><trkpt lat="44.3595517" lon="9.18727"><ele>115.0</ele><time>2026-04-15T15:32:58.51Z</time></trkpt><trkpt lat="44.3594883" lon="9.187195"><ele>112.0</ele><time>2026-04-15T15:32:59.51Z</time></trkpt><trkpt lat="44.35943" lon="9.1871167"><ele>109.0</ele><time>2026-04-15T15:33:00.51Z</time></trkpt><trkpt lat="44.35939" lon="9.187035"><ele>106.00000000000001</ele><time>2026-04-15T15:33:01.51Z</time></trkpt><trkpt lat="44.3593617" lon="9.1869417"><ele>103.0</ele><time>2026-04-15T15:33:02.509Z</time></trkpt><trkpt lat="44.359355" lon="9.186835"><ele>103.00000000000001</ele><time>2026-04-15T15:33:03.509Z</time></trkpt><trkpt lat="44.3593633" lon="9.1867317"><ele>103.0</ele><time>2026-04-15T15:33:04.51Z</time></trkpt><trkpt lat="44.3593717" lon="9.18662"><ele>103.0</ele><time>2026-04-15T15:33:05.51Z</time></trkpt><trkpt lat="44.3593883" lon="9.186505"><ele>103.0</ele><time>2026-04-15T15:33:06.51Z</time></trkpt><trkpt lat="44.3594033" lon="9.1863817"><ele>103.00000000000001</ele><time>2026-04-15T15:33:07.509Z</time></trkpt><trkpt lat="44.35941" lon="9.1862533"><ele>103.0</ele><time>2026-04-15T15:33:08.509Z</time></trkpt><trkpt lat="44.3593933" lon="9.1861133"><ele>103.16666666666667</ele><time>2026-04-15T15:33:09.509Z</time></trkpt><trkpt lat="44.3593617" lon="9.1859833"><ele>103.33333333333334</ele><time>2026-04-15T15:33:10.51Z</time></trkpt><trkpt lat="44.35932" lon="9.1858717"><ele>103.5</ele><time>2026-04-15T15:33:11.509Z</time></trkpt><trkpt lat="44.359275" lon="9.1857667"><ele>103.66666666666666</ele><time>2026-04-15T15:33:12.51Z</time></trkpt><trkpt lat="44.3592317" lon="9.185685"><ele>103.83333333333333</ele><time>2026-04-15T15:33:13.509Z</time></trkpt><trkpt lat="44.3591817" lon="9.18563"><ele>104.0</ele><time>2026-04-15T15:33:14.51Z</time></trkpt><trkpt lat="44.3591233" lon="9.1855883"><ele>104.0</ele><time>2026-04-15T15:33:15.509Z</time></trkpt><trkpt lat="44.35906" lon="9.1855717"><ele>104.0</ele><time>2026-04-15T15:33:16.509Z</time></trkpt><trkpt lat="44.358995" lon="9.18559"><ele>104.0</ele><time>2026-04-15T15:33:17.51Z</time></trkpt><trkpt lat="44.358935" lon="9.185635"><ele>104.0</ele><time>2026-04-15T15:33:18.509Z</time></trkpt><trkpt lat="44.358885" lon="9.1857117"><ele>104.0</ele><time>2026-04-15T15:33:19.51Z</time></trkpt><trkpt lat="44.3588517" lon="9.1858"><ele>104.0</ele><time>2026-04-15T15:33:20.509Z</time></trkpt><trkpt lat="44.3588433" lon="9.1858983"><ele>104.0</ele><time>2026-04-15T15:33:21.509Z</time></trkpt><trkpt lat="44.358855" lon="9.1859933"><ele>104.0</ele><time>2026-04-15T15:33:22.51Z</time></trkpt><trkpt lat="44.3588867" lon="9.1860783"><ele>104.0</ele><time>2026-04-15T15:33:23.509Z</time></trkpt><trkpt lat="44.35893" lon="9.1861583"><ele>104.0</ele><time>2026-04-15T15:33:24.51Z</time></trkpt><trkpt lat="44.3589767" lon="9.186235"><ele>104.0</ele><time>2026-04-15T15:33:25.51Z</time></trkpt><trkpt lat="44.359015" lon="9.1863217"><ele>104.0</ele><time>2026-04-15T15:33:26.509Z</time></trkpt><trkpt lat="44.359025" lon="9.1864133"><ele>104.0</ele><time>2026-04-15T15:33:27.51Z</time></trkpt><trkpt lat="44.3590117" lon="9.1865133"><ele>104.0</ele><time>2026-04-15T15:33:28.51Z</time></trkpt><trkpt lat="44.358975" lon="9.1866083"><ele>103.83333333333333</ele><time>2026-04-15T15:33:29.509Z</time></trkpt><trkpt lat="44.3589233" lon="9.1867"><ele>103.66666666666666</ele><time>2026-04-15T15:33:30.509Z</time></trkpt><trkpt lat="44.3588733" lon="9.186785"><ele>103.5</ele><time>2026-04-15T15:33:31.51Z</time></trkpt><trkpt lat="44.358825" lon="9.18687"><ele>103.33333333333334</ele><time>2026-04-15T15:33:32.51Z</time></trkpt><trkpt lat="44.3587817" lon="9.1869617"><ele>103.16666666666667</ele><time>2026-04-15T15:33:33.51Z</time></trkpt><trkpt lat="44.3587367" lon="9.18705"><ele>103.0</ele><time>2026-04-15T15:33:34.509Z</time></trkpt><trkpt lat="44.3587033" lon="9.18714"><ele>102.00000000000001</ele><time>2026-04-15T15:33:35.509Z</time></trkpt><trkpt lat="44.35869" lon="9.1872317"><ele>101.0</ele><time>2026-04-15T15:33:36.509Z</time></trkpt><trkpt lat="44.3587183" lon="9.187395"><ele>100.0</ele><time>2026-04-15T15:33:38.509Z</time></trkpt><trkpt lat="44.3587567" lon="9.1874767"><ele>99.0</ele><time>2026-04-15T15:33:39.51Z</time></trkpt><trkpt lat="44.3588083" lon="9.18756"><ele>98.00000000000001</ele><time>2026-04-15T15:33:40.51Z</time></trkpt><trkpt lat="44.35885" lon="9.1876433"><ele>97.0</ele><time>2026-04-15T15:33:41.51Z</time></trkpt><trkpt lat="44.358885" lon="9.1877167"><ele>97.0</ele><time>2026-04-15T15:33:42.51Z</time></trkpt><trkpt lat="44.3588917" lon="9.1878867"><ele>97.0</ele><time>2026-04-15T15:33:44.51Z</time></trkpt><trkpt lat="44.3588133" lon="9.1880333"><ele>97.0</ele><time>2026-04-15T15:33:46.509Z</time></trkpt><trkpt lat="44.358735" lon="9.1881"><ele>97.0</ele><time>2026-04-15T15:33:47.509Z</time></trkpt><trkpt lat="44.3586567" lon="9.188155"><ele>97.0</ele><time>2026-04-15T15:33:48.51Z</time></trkpt><trkpt lat="44.35858" lon="9.1882117"><ele>92.66666666666667</ele><time>2026-04-15T15:33:49.509Z</time></trkpt><trkpt lat="44.358505" lon="9.1882683"><ele>88.33333333333334</ele><time>2026-04-15T15:33:50.51Z</time></trkpt><trkpt lat="44.3584333" lon="9.1883267"><ele>84.0</ele><time>2026-04-15T15:33:51.51Z</time></trkpt><trkpt lat="44.358365" lon="9.18838"><ele>79.66666666666667</ele><time>2026-04-15T15:33:52.51Z</time></trkpt><trkpt lat="44.3583083" lon="9.188445"><ele>75.33333333333334</ele><time>2026-04-15T15:33:53.509Z</time></trkpt><trkpt lat="44.35826" lon="9.1885217"><ele>71.0</ele><time>2026-04-15T15:33:54.509Z</time></trkpt><trkpt lat="44.3582233" lon="9.1886117"><ele>71.0</ele><time>2026-04-15T15:33:55.51Z</time></trkpt><trkpt lat="44.3581867" lon="9.1887083"><ele>71.0</ele><time>2026-04-15T15:33:56.51Z</time></trkpt><trkpt lat="44.358155" lon="9.1888083"><ele>71.0</ele><time>2026-04-15T15:33:57.509Z</time></trkpt><trkpt lat="44.3581217" lon="9.1889033"><ele>71.0</ele><time>2026-04-15T15:33:58.51Z</time></trkpt><trkpt lat="44.35809" lon="9.1889917"><ele>71.0</ele><time>2026-04-15T15:33:59.51Z</time></trkpt><trkpt lat="44.3580617" lon="9.1890967"><ele>71.0</ele><time>2026-04-15T15:34:00.509Z</time></trkpt><trkpt lat="44.358055" lon="9.1892"><ele>71.42857142857143</ele><time>2026-04-15T15:34:01.509Z</time></trkpt><trkpt lat="44.3580767" lon="9.1892917"><ele>71.85714285714285</ele><time>2026-04-15T15:34:02.51Z</time></trkpt><trkpt lat="44.3581267" lon="9.1893683"><ele>72.28571428571428</ele><time>2026-04-15T15:34:03.509Z</time></trkpt><trkpt lat="44.3582" lon="9.1894183"><ele>72.71428571428571</ele><time>2026-04-15T15:34:04.51Z</time></trkpt><trkpt lat="44.3582717" lon="9.1894633"><ele>73.14285714285714</ele><time>2026-04-15T15:34:05.51Z</time></trkpt><trkpt lat="44.3583383" lon="9.189515"><ele>73.57142857142857</ele><time>2026-04-15T15:34:06.509Z</time></trkpt><trkpt lat="44.3583867" lon="9.18958"><ele>74.0</ele><time>2026-04-15T15:34:07.509Z</time></trkpt><trkpt lat="44.3584133" lon="9.1896717"><ele>74.0</ele><time>2026-04-15T15:34:08.51Z</time></trkpt><trkpt lat="44.3584133" lon="9.189775"><ele>74.0</ele><time>2026-04-15T15:34:09.51Z</time></trkpt><trkpt lat="44.3584033" lon="9.18987"><ele>74.0</ele><time>2026-04-15T15:34:10.51Z</time></trkpt><trkpt lat="44.3583683" lon="9.1899617"><ele>74.0</ele><time>2026-04-15T15:34:11.509Z</time></trkpt><trkpt lat="44.3583333" lon="9.190055"><ele>74.0</ele><time>2026-04-15T15:34:12.51Z</time></trkpt><trkpt lat="44.3583067" lon="9.1901517"><ele>74.0</ele><time>2026-04-15T15:34:13.509Z</time></trkpt><trkpt lat="44.3582967" lon="9.1902567"><ele>74.0</ele><time>2026-04-15T15:34:14.509Z</time></trkpt><trkpt lat="44.35831" lon="9.1903583"><ele>72.0</ele><time>2026-04-15T15:34:15.509Z</time></trkpt><trkpt lat="44.3583417" lon="9.1904617"><ele>70.0</ele><time>2026-04-15T15:34:16.51Z</time></trkpt><trkpt lat="44.3583633" lon="9.190575"><ele>68.0</ele><time>2026-04-15T15:34:17.509Z</time></trkpt><trkpt lat="44.3583683" lon="9.1906883"><ele>66.0</ele><time>2026-04-15T15:34:18.51Z</time></trkpt><trkpt lat="44.3583483" lon="9.1908033"><ele>64.0</ele><time>2026-04-15T15:34:19.51Z</time></trkpt><trkpt lat="44.3583083" lon="9.1909017"><ele>62.0</ele><time>2026-04-15T15:34:20.51Z</time></trkpt><trkpt lat="44.3582367" lon="9.190965"><ele>61.833333333333336</ele><time>2026-04-15T15:34:21.509Z</time></trkpt><trkpt lat="44.358155" lon="9.1909983"><ele>61.66666666666667</ele><time>2026-04-15T15:34:22.51Z</time></trkpt><trkpt lat="44.3580733" lon="9.1910167"><ele>61.5</ele><time>2026-04-15T15:34:23.509Z</time></trkpt><trkpt lat="44.357985" lon="9.1910283"><ele>61.33333333333333</ele><time>2026-04-15T15:34:24.51Z</time></trkpt><trkpt lat="44.3579" lon="9.19104"><ele>61.166666666666664</ele><time>2026-04-15T15:34:25.51Z</time></trkpt><trkpt lat="44.3578167" lon="9.1910483"><ele>61.0</ele><time>2026-04-15T15:34:26.51Z</time></trkpt><trkpt lat="44.3577367" lon="9.1910817"><ele>57.4</ele><time>2026-04-15T15:34:27.509Z</time></trkpt><trkpt lat="44.3576667" lon="9.19115"><ele>53.8</ele><time>2026-04-15T15:34:28.509Z</time></trkpt><trkpt lat="44.3576117" lon="9.1912383"><ele>50.199999999999996</ele><time>2026-04-15T15:34:29.51Z</time></trkpt><trkpt lat="44.3575733" lon="9.1913433"><ele>46.599999999999994</ele><time>2026-04-15T15:34:30.509Z</time></trkpt><trkpt lat="44.3575567" lon="9.191475"><ele>43.0</ele><time>2026-04-15T15:34:31.51Z</time></trkpt><trkpt lat="44.3575517" lon="9.1916217"><ele>43.0</ele><time>2026-04-15T15:34:32.509Z</time></trkpt><trkpt lat="44.3575417" lon="9.191765"><ele>43.0</ele><time>2026-04-15T15:34:33.51Z</time></trkpt><trkpt lat="44.3575267" lon="9.191905"><ele>43.0</ele><time>2026-04-15T15:34:34.51Z</time></trkpt><trkpt lat="44.3575133" lon="9.192035"><ele>43.0</ele><time>2026-04-15T15:34:35.51Z</time></trkpt><trkpt lat="44.3575" lon="9.1921683"><ele>43.0</ele><time>2026-04-15T15:34:36.509Z</time></trkpt><trkpt lat="44.3574833" lon="9.192305"><ele>42.8</ele><time>2026-04-15T15:34:37.509Z</time></trkpt><trkpt lat="44.3574667" lon="9.1924433"><ele>42.599999999999994</ele><time>2026-04-15T15:34:38.509Z</time></trkpt><trkpt lat="44.3574533" lon="9.19258"><ele>42.400000000000006</ele><time>2026-04-15T15:34:39.51Z</time></trkpt><trkpt lat="44.3574383" lon="9.192705"><ele>42.2</ele><time>2026-04-15T15:34:40.51Z</time></trkpt><trkpt lat="44.3574267" lon="9.19282"><ele>42.0</ele><time>2026-04-15T15:34:41.51Z</time></trkpt><trkpt lat="44.357415" lon="9.192935"><ele>42.0</ele><time>2026-04-15T15:34:42.509Z</time></trkpt><trkpt lat="44.357405" lon="9.1930483"><ele>42.0</ele><time>2026-04-15T15:34:43.51Z</time></trkpt><trkpt lat="44.3573967" lon="9.19317"><ele>42.0</ele><time>2026-04-15T15:34:44.51Z</time></trkpt><trkpt lat="44.3573967" lon="9.1933033"><ele>42.0</ele><time>2026-04-15T15:34:45.509Z</time></trkpt><trkpt lat="44.3573917" lon="9.193445"><ele>42.0</ele><time>2026-04-15T15:34:46.51Z</time></trkpt><trkpt lat="44.35739" lon="9.1935783"><ele>40.833333333333336</ele><time>2026-04-15T15:34:47.509Z</time></trkpt><trkpt lat="44.3573933" lon="9.193705"><ele>39.666666666666664</ele><time>2026-04-15T15:34:48.509Z</time></trkpt><trkpt lat="44.3574017" lon="9.19382"><ele>38.5</ele><time>2026-04-15T15:34:49.509Z</time></trkpt><trkpt lat="44.357415" lon="9.1939233"><ele>37.33333333333333</ele><time>2026-04-15T15:34:50.509Z</time></trkpt><trkpt lat="44.3574317" lon="9.1940283"><ele>36.166666666666664</ele><time>2026-04-15T15:34:51.51Z</time></trkpt><trkpt lat="44.3574517" lon="9.1941367"><ele>35.0</ele><time>2026-04-15T15:34:52.509Z</time></trkpt><trkpt lat="44.3574767" lon="9.194235"><ele>33.83333333333333</ele><time>2026-04-15T15:34:53.509Z</time></trkpt><trkpt lat="44.35751" lon="9.1943333"><ele>32.666666666666664</ele><time>2026-04-15T15:34:54.509Z</time></trkpt><trkpt lat="44.357545" lon="9.1944467"><ele>31.5</ele><time>2026-04-15T15:34:55.509Z</time></trkpt><trkpt lat="44.3575817" lon="9.1945567"><ele>30.333333333333336</ele><time>2026-04-15T15:34:56.509Z</time></trkpt><trkpt lat="44.35762" lon="9.194675"><ele>29.166666666666668</ele><time>2026-04-15T15:34:57.51Z</time></trkpt><trkpt lat="44.3576533" lon="9.1948033"><ele>28.0</ele><time>2026-04-15T15:34:58.509Z</time></trkpt><trkpt lat="44.357675" lon="9.1949367"><ele>27.799999999999997</ele><time>2026-04-15T15:34:59.509Z</time></trkpt><trkpt lat="44.3577" lon="9.1950667"><ele>27.599999999999998</ele><time>2026-04-15T15:35:00.509Z</time></trkpt><trkpt lat="44.3577117" lon="9.1951967"><ele>27.400000000000002</ele><time>2026-04-15T15:35:01.51Z</time></trkpt><trkpt lat="44.3577133" lon="9.1953317"><ele>27.200000000000003</ele><time>2026-04-15T15:35:02.509Z</time></trkpt><trkpt lat="44.3577083" lon="9.1954633"><ele>27.0</ele><time>2026-04-15T15:35:03.51Z</time></trkpt><trkpt lat="44.3576983" lon="9.1955817"><ele>26.400000000000002</ele><time>2026-04-15T15:35:04.509Z</time></trkpt><trkpt lat="44.3577" lon="9.1957017"><ele>25.800000000000004</ele><time>2026-04-15T15:35:05.51Z</time></trkpt><trkpt lat="44.3576933" lon="9.195825"><ele>25.2</ele><time>2026-04-15T15:35:06.509Z</time></trkpt><trkpt lat="44.35769" lon="9.1959517"><ele>24.6</ele><time>2026-04-15T15:35:07.509Z</time></trkpt><trkpt lat="44.3576917" lon="9.196075"><ele>24.0</ele><time>2026-04-15T15:35:08.51Z</time></trkpt><trkpt lat="44.3576917" lon="9.196215"><ele>24.0</ele><time>2026-04-15T15:35:09.509Z</time></trkpt><trkpt lat="44.3577017" lon="9.1963467"><ele>24.0</ele><time>2026-04-15T15:35:10.509Z</time></trkpt><trkpt lat="44.3577083" lon="9.19649"><ele>24.0</ele><time>2026-04-15T15:35:11.509Z</time></trkpt><trkpt lat="44.357715" lon="9.1966283"><ele>24.0</ele><time>2026-04-15T15:35:12.51Z</time></trkpt><trkpt lat="44.3577283" lon="9.1967683"><ele>24.0</ele><time>2026-04-15T15:35:13.509Z</time></trkpt><trkpt lat="44.3577533" lon="9.1969083"><ele>23.4</ele><time>2026-04-15T15:35:14.509Z</time></trkpt><trkpt lat="44.3577783" lon="9.1970433"><ele>22.799999999999997</ele><time>2026-04-15T15:35:15.51Z</time></trkpt><trkpt lat="44.3578017" lon="9.1971817"><ele>22.200000000000003</ele><time>2026-04-15T15:35:16.509Z</time></trkpt><trkpt lat="44.3578217" lon="9.1973183"><ele>21.6</ele><time>2026-04-15T15:35:17.51Z</time></trkpt><trkpt lat="44.357835" lon="9.1974533"><ele>21.0</ele><time>2026-04-15T15:35:18.51Z</time></trkpt><trkpt lat="44.35784" lon="9.1975867"><ele>20.6</ele><time>2026-04-15T15:35:19.51Z</time></trkpt><trkpt lat="44.3578383" lon="9.1977167"><ele>20.200000000000003</ele><time>2026-04-15T15:35:20.51Z</time></trkpt><trkpt lat="44.3578267" lon="9.1978467"><ele>19.799999999999997</ele><time>2026-04-15T15:35:21.509Z</time></trkpt><trkpt lat="44.3578117" lon="9.1979783"><ele>19.4</ele><time>2026-04-15T15:35:22.51Z</time></trkpt><trkpt lat="44.3577933" lon="9.19811"><ele>19.0</ele><time>2026-04-15T15:35:23.509Z</time></trkpt><trkpt lat="44.3577733" lon="9.19825"><ele>19.0</ele><time>2026-04-15T15:35:24.509Z</time></trkpt><trkpt lat="44.35775" lon="9.1983967"><ele>19.0</ele><time>2026-04-15T15:35:25.509Z</time></trkpt><trkpt lat="44.3577367" lon="9.1985483"><ele>19.0</ele><time>2026-04-15T15:35:26.509Z</time></trkpt><trkpt lat="44.3577267" lon="9.1987"><ele>19.0</ele><time>2026-04-15T15:35:27.509Z</time></trkpt><trkpt lat="44.3577067" lon="9.198845"><ele>19.0</ele><time>2026-04-15T15:35:28.509Z</time></trkpt><trkpt lat="44.3576917" lon="9.1989917"><ele>18.8</ele><time>2026-04-15T15:35:29.51Z</time></trkpt><trkpt lat="44.35768" lon="9.1991317"><ele>18.599999999999998</ele><time>2026-04-15T15:35:30.509Z</time></trkpt><trkpt lat="44.35767" lon="9.1992683"><ele>18.4</ele><time>2026-04-15T15:35:31.509Z</time></trkpt><trkpt lat="44.357665" lon="9.1994017"><ele>18.2</ele><time>2026-04-15T15:35:32.51Z</time></trkpt><trkpt lat="44.3576567" lon="9.199535"><ele>18.0</ele><time>2026-04-15T15:35:33.509Z</time></trkpt><trkpt lat="44.3576467" lon="9.1996617"><ele>18.0</ele><time>2026-04-15T15:35:34.509Z</time></trkpt><trkpt lat="44.3576383" lon="9.1997933"><ele>18.0</ele><time>2026-04-15T15:35:35.51Z</time></trkpt><trkpt lat="44.3576317" lon="9.19992"><ele>18.0</ele><time>2026-04-15T15:35:36.509Z</time></trkpt><trkpt lat="44.3576233" lon="9.20006"><ele>18.0</ele><time>2026-04-15T15:35:37.51Z</time></trkpt><trkpt lat="44.357615" lon="9.200195"><ele>18.0</ele><time>2026-04-15T15:35:38.51Z</time></trkpt><trkpt lat="44.357605" lon="9.2003267"><ele>18.0</ele><time>2026-04-15T15:35:39.509Z</time></trkpt><trkpt lat="44.357595" lon="9.2004567"><ele>18.0</ele><time>2026-04-15T15:35:40.51Z</time></trkpt><trkpt lat="44.357585" lon="9.2005867"><ele>18.0</ele><time>2026-04-15T15:35:41.51Z</time></trkpt><trkpt lat="44.3575733" lon="9.2007133"><ele>18.0</ele><time>2026-04-15T15:35:42.51Z</time></trkpt><trkpt lat="44.3575567" lon="9.2008333"><ele>18.0</ele><time>2026-04-15T15:35:43.509Z</time></trkpt><trkpt lat="44.3575317" lon="9.20095"><ele>18.0</ele><time>2026-04-15T15:35:44.51Z</time></trkpt><trkpt lat="44.3574983" lon="9.20106"><ele>18.0</ele><time>2026-04-15T15:35:45.51Z</time></trkpt><trkpt lat="44.3574633" lon="9.201165"><ele>18.0</ele><time>2026-04-15T15:35:46.509Z</time></trkpt><trkpt lat="44.3574267" lon="9.201265"><ele>18.0</ele><time>2026-04-15T15:35:47.509Z</time></trkpt><trkpt lat="44.3573867" lon="9.201375"><ele>18.0</ele><time>2026-04-15T15:35:48.51Z</time></trkpt><trkpt lat="44.3573517" lon="9.2014817"><ele>18.0</ele><time>2026-04-15T15:35:49.509Z</time></trkpt><trkpt lat="44.3573183" lon="9.2015917"><ele>17.6</ele><time>2026-04-15T15:35:50.51Z</time></trkpt><trkpt lat="44.3572833" lon="9.2017017"><ele>17.200000000000003</ele><time>2026-04-15T15:35:51.51Z</time></trkpt><trkpt lat="44.3572483" lon="9.2018183"><ele>16.8</ele><time>2026-04-15T15:35:52.509Z</time></trkpt><trkpt lat="44.3572133" lon="9.2019417"><ele>16.400000000000002</ele><time>2026-04-15T15:35:53.51Z</time></trkpt><trkpt lat="44.35717" lon="9.2020683"><ele>16.0</ele><time>2026-04-15T15:35:54.509Z</time></trkpt><trkpt lat="44.3571117" lon="9.2021983"><ele>17.8</ele><time>2026-04-15T15:35:55.51Z</time></trkpt><trkpt lat="44.3570583" lon="9.2023267"><ele>19.6</ele><time>2026-04-15T15:35:56.509Z</time></trkpt><trkpt lat="44.3570067" lon="9.2024567"><ele>21.4</ele><time>2026-04-15T15:35:57.509Z</time></trkpt><trkpt lat="44.3569533" lon="9.20258"><ele>23.2</ele><time>2026-04-15T15:35:58.51Z</time></trkpt><trkpt lat="44.3568983" lon="9.2026983"><ele>25.0</ele><time>2026-04-15T15:35:59.51Z</time></trkpt><trkpt lat="44.356845" lon="9.2028133"><ele>25.0</ele><time>2026-04-15T15:36:00.509Z</time></trkpt><trkpt lat="44.356795" lon="9.2029267"><ele>25.0</ele><time>2026-04-15T15:36:01.509Z</time></trkpt><trkpt lat="44.3567467" lon="9.2030317"><ele>25.0</ele><time>2026-04-15T15:36:02.509Z</time></trkpt><trkpt lat="44.3567" lon="9.2031383"><ele>25.0</ele><time>2026-04-15T15:36:03.51Z</time></trkpt><trkpt lat="44.3566517" lon="9.2032417"><ele>25.0</ele><time>2026-04-15T15:36:04.509Z</time></trkpt><trkpt lat="44.3566117" lon="9.203355"><ele>23.833333333333336</ele><time>2026-04-15T15:36:05.509Z</time></trkpt><trkpt lat="44.35658" lon="9.203465"><ele>22.666666666666668</ele><time>2026-04-15T15:36:06.509Z</time></trkpt><trkpt lat="44.3565533" lon="9.2035833"><ele>21.5</ele><time>2026-04-15T15:36:07.51Z</time></trkpt><trkpt lat="44.356535" lon="9.2037117"><ele>20.333333333333336</ele><time>2026-04-15T15:36:08.51Z</time></trkpt><trkpt lat="44.3565233" lon="9.2038267"><ele>19.166666666666668</ele><time>2026-04-15T15:36:09.509Z</time></trkpt><trkpt lat="44.3565233" lon="9.2039417"><ele>18.0</ele><time>2026-04-15T15:36:10.51Z</time></trkpt><trkpt lat="44.3565167" lon="9.2040583"><ele>17.42857142857143</ele><time>2026-04-15T15:36:11.509Z</time></trkpt><trkpt lat="44.3565167" lon="9.2041667"><ele>16.857142857142858</ele><time>2026-04-15T15:36:12.51Z</time></trkpt><trkpt lat="44.3565267" lon="9.2042583"><ele>16.285714285714285</ele><time>2026-04-15T15:36:13.51Z</time></trkpt><trkpt lat="44.3565433" lon="9.204355"><ele>15.714285714285715</ele><time>2026-04-15T15:36:14.51Z</time></trkpt><trkpt lat="44.3565717" lon="9.2044517"><ele>15.142857142857142</ele><time>2026-04-15T15:36:15.509Z</time></trkpt><trkpt lat="44.35659" lon="9.2045483"><ele>14.571428571428571</ele><time>2026-04-15T15:36:16.51Z</time></trkpt><trkpt lat="44.3566083" lon="9.204655"><ele>14.0</ele><time>2026-04-15T15:36:17.51Z</time></trkpt><trkpt lat="44.3566233" lon="9.2047683"><ele>13.833333333333334</ele><time>2026-04-15T15:36:18.51Z</time></trkpt><trkpt lat="44.356645" lon="9.2048883"><ele>13.666666666666668</ele><time>2026-04-15T15:36:19.51Z</time></trkpt><trkpt lat="44.3566617" lon="9.205005"><ele>13.5</ele><time>2026-04-15T15:36:20.509Z</time></trkpt><trkpt lat="44.3566783" lon="9.2051183"><ele>13.333333333333332</ele><time>2026-04-15T15:36:21.509Z</time></trkpt><trkpt lat="44.3566933" lon="9.20523"><ele>13.166666666666666</ele><time>2026-04-15T15:36:22.509Z</time></trkpt><trkpt lat="44.3567067" lon="9.20535"><ele>13.0</ele><time>2026-04-15T15:36:23.51Z</time></trkpt><trkpt lat="44.3567117" lon="9.2054717"><ele>12.999999999999998</ele><time>2026-04-15T15:36:24.509Z</time></trkpt><trkpt lat="44.3567167" lon="9.20559"><ele>13.0</ele><time>2026-04-15T15:36:25.509Z</time></trkpt><trkpt lat="44.3567133" lon="9.205705"><ele>13.0</ele><time>2026-04-15T15:36:26.51Z</time></trkpt><trkpt lat="44.3567033" lon="9.2058283"><ele>13.0</ele><time>2026-04-15T15:36:27.509Z</time></trkpt><trkpt lat="44.3567" lon="9.2059417"><ele>12.999999999999998</ele><time>2026-04-15T15:36:28.51Z</time></trkpt><trkpt lat="44.3567083" lon="9.2060667"><ele>13.0</ele><time>2026-04-15T15:36:29.51Z</time></trkpt><trkpt lat="44.3567067" lon="9.2061967"><ele>12.8</ele><time>2026-04-15T15:36:30.509Z</time></trkpt><trkpt lat="44.3567083" lon="9.206325"><ele>12.600000000000001</ele><time>2026-04-15T15:36:31.509Z</time></trkpt><trkpt lat="44.3566983" lon="9.2064583"><ele>12.399999999999999</ele><time>2026-04-15T15:36:32.51Z</time></trkpt><trkpt lat="44.3566767" lon="9.2065967"><ele>12.2</ele><time>2026-04-15T15:36:33.51Z</time></trkpt><trkpt lat="44.3566583" lon="9.2067317"><ele>12.0</ele><time>2026-04-15T15:36:34.51Z</time></trkpt><trkpt lat="44.35663" lon="9.2068667"><ele>12.0</ele><time>2026-04-15T15:36:35.51Z</time></trkpt><trkpt lat="44.3565983" lon="9.2069983"><ele>12.0</ele><time>2026-04-15T15:36:36.51Z</time></trkpt><trkpt lat="44.3565617" lon="9.2071317"><ele>12.0</ele><time>2026-04-15T15:36:37.509Z</time></trkpt><trkpt lat="44.3565233" lon="9.2072567"><ele>12.0</ele><time>2026-04-15T15:36:38.51Z</time></trkpt><trkpt lat="44.3564867" lon="9.2073783"><ele>12.0</ele><time>2026-04-15T15:36:39.509Z</time></trkpt><trkpt lat="44.3564417" lon="9.2074933"><ele>11.833333333333334</ele><time>2026-04-15T15:36:40.509Z</time></trkpt><trkpt lat="44.35641" lon="9.20761"><ele>11.666666666666666</ele><time>2026-04-15T15:36:41.509Z</time></trkpt><trkpt lat="44.3563733" lon="9.2077183"><ele>11.5</ele><time>2026-04-15T15:36:42.51Z</time></trkpt><trkpt lat="44.356335" lon="9.2078283"><ele>11.333333333333332</ele><time>2026-04-15T15:36:43.51Z</time></trkpt><trkpt lat="44.3562983" lon="9.20794"><ele>11.166666666666666</ele><time>2026-04-15T15:36:44.509Z</time></trkpt><trkpt lat="44.3562617" lon="9.208055"><ele>11.0</ele><time>2026-04-15T15:36:45.51Z</time></trkpt><trkpt lat="44.3562233" lon="9.2081667"><ele>10.8</ele><time>2026-04-15T15:36:46.509Z</time></trkpt><trkpt lat="44.3561917" lon="9.2082817"><ele>10.600000000000001</ele><time>2026-04-15T15:36:47.509Z</time></trkpt><trkpt lat="44.3561567" lon="9.2083983"><ele>10.4</ele><time>2026-04-15T15:36:48.51Z</time></trkpt><trkpt lat="44.35612" lon="9.2085183"><ele>10.2</ele><time>2026-04-15T15:36:49.509Z</time></trkpt><trkpt lat="44.3560833" lon="9.208635"><ele>10.0</ele><time>2026-04-15T15:36:50.509Z</time></trkpt><trkpt lat="44.3560433" lon="9.20875"><ele>10.0</ele><time>2026-04-15T15:36:51.509Z</time></trkpt><trkpt lat="44.356" lon="9.2088633"><ele>10.0</ele><time>2026-04-15T15:36:52.509Z</time></trkpt><trkpt lat="44.35596" lon="9.2089767"><ele>10.0</ele><time>2026-04-15T15:36:53.51Z</time></trkpt><trkpt lat="44.3559283" lon="9.2090867"><ele>10.0</ele><time>2026-04-15T15:36:54.509Z</time></trkpt><trkpt lat="44.3558933" lon="9.209195"><ele>10.0</ele><time>2026-04-15T15:36:55.509Z</time></trkpt><trkpt lat="44.3558633" lon="9.2092933"><ele>10.0</ele><time>2026-04-15T15:36:56.509Z</time></trkpt><trkpt lat="44.3558333" lon="9.2093783"><ele>10.0</ele><time>2026-04-15T15:36:57.509Z</time></trkpt><trkpt lat="44.3557817" lon="9.209525"><ele>10.0</ele><time>2026-04-15T15:36:59.509Z</time></trkpt><trkpt lat="44.355745" lon="9.2096533"><ele>10.0</ele><time>2026-04-15T15:37:01.509Z</time></trkpt><trkpt lat="44.3557133" lon="9.2097717"><ele>10.0</ele><time>2026-04-15T15:37:03.508Z</time></trkpt><trkpt lat="44.3556867" lon="9.2098783"><ele>10.0</ele><time>2026-04-15T15:37:06.508Z</time></trkpt><trkpt lat="44.355675" lon="9.209975"><ele>10.166666666666668</ele><time>2026-04-15T15:37:10.509Z</time></trkpt><trkpt lat="44.3556583" lon="9.21008"><ele>10.333333333333334</ele><time>2026-04-15T15:37:17.508Z</time></trkpt><trkpt lat="44.355625" lon="9.2101583"><ele>10.5</ele><time>2026-04-15T15:37:22.508Z</time></trkpt><trkpt lat="44.355595" lon="9.2102367"><ele>10.666666666666666</ele><time>2026-04-15T15:37:27.508Z</time></trkpt><trkpt lat="44.35557" lon="9.2103367"><ele>10.833333333333332</ele><time>2026-04-15T15:37:33.509Z</time></trkpt><trkpt lat="44.35552" lon="9.2104783"><ele>11.0</ele><time>2026-04-15T15:37:35.509Z</time></trkpt><trkpt lat="44.355475" lon="9.21057"><ele>10.833333333333332</ele><time>2026-04-15T15:37:36.509Z</time></trkpt><trkpt lat="44.3554217" lon="9.2106633"><ele>10.666666666666666</ele><time>2026-04-15T15:37:37.508Z</time></trkpt><trkpt lat="44.3553683" lon="9.21075"><ele>10.5</ele><time>2026-04-15T15:37:38.508Z</time></trkpt><trkpt lat="44.3553167" lon="9.21083"><ele>10.333333333333334</ele><time>2026-04-15T15:37:39.508Z</time></trkpt><trkpt lat="44.3552733" lon="9.210915"><ele>10.166666666666668</ele><time>2026-04-15T15:37:40.509Z</time></trkpt><trkpt lat="44.3552217" lon="9.2109983"><ele>10.0</ele><time>2026-04-15T15:37:41.509Z</time></trkpt><trkpt lat="44.3551667" lon="9.21108"><ele>10.0</ele><time>2026-04-15T15:37:42.509Z</time></trkpt><trkpt lat="44.3551033" lon="9.211175"><ele>10.0</ele><time>2026-04-15T15:37:43.508Z</time></trkpt><trkpt lat="44.355045" lon="9.211265"><ele>10.0</ele><time>2026-04-15T15:37:44.508Z</time></trkpt><trkpt lat="44.3549833" lon="9.2113683"><ele>10.0</ele><time>2026-04-15T15:37:45.508Z</time></trkpt><trkpt lat="44.3549067" lon="9.2114733"><ele>10.0</ele><time>2026-04-15T15:37:46.509Z</time></trkpt><trkpt lat="44.354835" lon="9.2115783"><ele>10.333333333333334</ele><time>2026-04-15T15:37:47.509Z</time></trkpt><trkpt lat="44.35477" lon="9.2116767"><ele>10.666666666666668</ele><time>2026-04-15T15:37:48.508Z</time></trkpt><trkpt lat="44.3547033" lon="9.2117667"><ele>11.0</ele><time>2026-04-15T15:37:49.508Z</time></trkpt><trkpt lat="44.3546467" lon="9.211845"><ele>11.333333333333334</ele><time>2026-04-15T15:37:50.508Z</time></trkpt><trkpt lat="44.35459" lon="9.211925"><ele>11.666666666666666</ele><time>2026-04-15T15:37:51.509Z</time></trkpt><trkpt lat="44.354535" lon="9.2119983"><ele>12.0</ele><time>2026-04-15T15:37:52.509Z</time></trkpt><trkpt lat="44.3544867" lon="9.2120717"><ele>12.166666666666666</ele><time>2026-04-15T15:37:53.508Z</time></trkpt><trkpt lat="44.354395" lon="9.212185"><ele>12.333333333333332</ele><time>2026-04-15T15:37:55.509Z</time></trkpt><trkpt lat="44.354345" lon="9.2122433"><ele>12.5</ele><time>2026-04-15T15:37:56.509Z</time></trkpt><trkpt lat="44.354295" lon="9.2123033"><ele>12.666666666666666</ele><time>2026-04-15T15:37:57.508Z</time></trkpt><trkpt lat="44.3542417" lon="9.2123683"><ele>12.833333333333332</ele><time>2026-04-15T15:37:58.509Z</time></trkpt><trkpt lat="44.35419" lon="9.2124267"><ele>13.0</ele><time>2026-04-15T15:37:59.509Z</time></trkpt><trkpt lat="44.354095" lon="9.2125383"><ele>12.600000000000001</ele><time>2026-04-15T15:38:01.508Z</time></trkpt><trkpt lat="44.353995" lon="9.2126517"><ele>12.200000000000001</ele><time>2026-04-15T15:38:03.509Z</time></trkpt><trkpt lat="44.3539" lon="9.2127533"><ele>11.8</ele><time>2026-04-15T15:38:05.508Z</time></trkpt><trkpt lat="44.35386" lon="9.212825"><ele>11.4</ele><time>2026-04-15T15:38:06.508Z</time></trkpt><trkpt lat="44.35379" lon="9.2129467"><ele>11.0</ele><time>2026-04-15T15:38:08.508Z</time></trkpt><trkpt lat="44.35372" lon="9.2130367"><ele>10.666666666666666</ele><time>2026-04-15T15:38:10.508Z</time></trkpt><trkpt lat="44.3536733" lon="9.2131"><ele>10.333333333333332</ele><time>2026-04-15T15:38:12.509Z</time></trkpt><trkpt lat="44.353615" lon="9.2131967"><ele>10.0</ele><time>2026-04-15T15:38:14.509Z</time></trkpt><trkpt lat="44.35356" lon="9.2132817"><ele>9.666666666666666</ele><time>2026-04-15T15:38:16.509Z</time></trkpt><trkpt lat="44.3534917" lon="9.2134083"><ele>9.333333333333334</ele><time>2026-04-15T15:38:18.508Z</time></trkpt><trkpt lat="44.3534633" lon="9.21349"><ele>9.0</ele><time>2026-04-15T15:38:19.508Z</time></trkpt><trkpt lat="44.3534333" lon="9.21357"><ele>8.833333333333334</ele><time>2026-04-15T15:38:20.509Z</time></trkpt><trkpt lat="44.353395" lon="9.213705"><ele>8.666666666666666</ele><time>2026-04-15T15:38:22.508Z</time></trkpt><trkpt lat="44.3533733" lon="9.2138183"><ele>8.5</ele><time>2026-04-15T15:38:24.509Z</time></trkpt><trkpt lat="44.353345" lon="9.2139367"><ele>8.333333333333332</ele><time>2026-04-15T15:38:26.508Z</time></trkpt><trkpt lat="44.3533183" lon="9.214045"><ele>8.166666666666666</ele><time>2026-04-15T15:38:28.508Z</time></trkpt><trkpt lat="44.3533183" lon="9.2141483"><ele>8.0</ele><time>2026-04-15T15:38:30.508Z</time></trkpt><trkpt lat="44.3533217" lon="9.214275"><ele>7.999999999999999</ele><time>2026-04-15T15:38:32.508Z</time></trkpt><trkpt lat="44.3533117" lon="9.2144333"><ele>8.0</ele><time>2026-04-15T15:38:34.509Z</time></trkpt><trkpt lat="44.3532967" lon="9.2145317"><ele>8.0</ele><time>2026-04-15T15:38:35.508Z</time></trkpt><trkpt lat="44.3532683" lon="9.2146367"><ele>8.0</ele><time>2026-04-15T15:38:36.509Z</time></trkpt><trkpt lat="44.3532467" lon="9.2147333"><ele>7.999999999999999</ele><time>2026-04-15T15:38:37.509Z</time></trkpt><trkpt lat="44.3532217" lon="9.214835"><ele>8.0</ele><time>2026-04-15T15:38:38.509Z</time></trkpt><trkpt lat="44.3532" lon="9.2149267"><ele>7.999999999999999</ele><time>2026-04-15T15:38:39.508Z</time></trkpt><trkpt lat="44.3531767" lon="9.2150167"><ele>8.0</ele><time>2026-04-15T15:38:40.508Z</time></trkpt><trkpt lat="44.3531583" lon="9.2151017"><ele>8.0</ele><time>2026-04-15T15:38:41.508Z</time></trkpt><trkpt lat="44.3531367" lon="9.2151867"><ele>8.0</ele><time>2026-04-15T15:38:42.509Z</time></trkpt><trkpt lat="44.3530967" lon="9.21536"><ele>7.999999999999999</ele><time>2026-04-15T15:38:44.509Z</time></trkpt><trkpt lat="44.35308" lon="9.2154533"><ele>8.0</ele><time>2026-04-15T15:38:45.509Z</time></trkpt><trkpt lat="44.3530583" lon="9.2155533"><ele>8.0</ele><time>2026-04-15T15:38:46.508Z</time></trkpt><trkpt lat="44.35304" lon="9.2156533"><ele>7.999999999999999</ele><time>2026-04-15T15:38:47.508Z</time></trkpt><trkpt lat="44.353025" lon="9.2157517"><ele>8.0</ele><time>2026-04-15T15:38:48.508Z</time></trkpt><trkpt lat="44.3530067" lon="9.215855"><ele>8.0</ele><time>2026-04-15T15:38:49.508Z</time></trkpt><trkpt lat="44.3529867" lon="9.2159533"><ele>7.999999999999999</ele><time>2026-04-15T15:38:50.509Z</time></trkpt><trkpt lat="44.3529683" lon="9.21605"><ele>8.0</ele><time>2026-04-15T15:38:51.508Z</time></trkpt><trkpt lat="44.3529533" lon="9.2161417"><ele>8.0</ele><time>2026-04-15T15:38:52.508Z</time></trkpt><trkpt lat="44.3529333" lon="9.216235"><ele>8.5</ele><time>2026-04-15T15:38:53.509Z</time></trkpt><trkpt lat="44.352915" lon="9.2163317"><ele>9.0</ele><time>2026-04-15T15:38:54.509Z</time></trkpt><trkpt lat="44.3528967" lon="9.21643"><ele>9.5</ele><time>2026-04-15T15:38:55.509Z</time></trkpt><trkpt lat="44.3528767" lon="9.21653"><ele>10.0</ele><time>2026-04-15T15:38:56.508Z</time></trkpt><trkpt lat="44.35286" lon="9.2166267"><ele>10.5</ele><time>2026-04-15T15:38:57.508Z</time></trkpt><trkpt lat="44.3528283" lon="9.2167667"><ele>11.0</ele><time>2026-04-15T15:38:59.509Z</time></trkpt><trkpt lat="44.3528483" lon="9.216885"><ele>11.0</ele><time>2026-04-15T15:39:02.508Z</time></trkpt><trkpt lat="44.3529517" lon="9.216935"><ele>11.0</ele><time>2026-04-15T15:39:04.509Z</time></trkpt><trkpt lat="44.3530133" lon="9.21696"><ele>11.0</ele><time>2026-04-15T15:39:05.508Z</time></trkpt><trkpt lat="44.3530783" lon="9.216985"><ele>11.0</ele><time>2026-04-15T15:39:06.508Z</time></trkpt><trkpt lat="44.3531567" lon="9.217015"><ele>11.0</ele><time>2026-04-15T15:39:07.509Z</time></trkpt><trkpt lat="44.3532317" lon="9.2170433"><ele>11.0</ele><time>2026-04-15T15:39:08.509Z</time></trkpt><trkpt lat="44.3532967" lon="9.2170683"><ele>11.0</ele><time>2026-04-15T15:39:09.508Z</time></trkpt><trkpt lat="44.353395" lon="9.21712"><ele>11.0</ele><time>2026-04-15T15:39:11.508Z</time></trkpt><trkpt lat="44.3534633" lon="9.2171317"><ele>11.0</ele><time>2026-04-15T15:39:13.509Z</time></trkpt></trkseg></trk></gpx>